<?xml version="1.0" encoding="UTF-8" standalone="no" ?>
<gpx xmlns="http://www.topografix.com/GPX/1/1" creator="MapSource 6.16.3" version="1.1" xmlns:xsi="http://www.w3.org/2001/XMLSchema-instance" xsi:schemaLocation="http://www.topografix.com/GPX/1/1 http://www.topografix.com/GPX/1/1/gpx.xsd">

  <metadata>
    <link href="http://www.garmin.com">
      <text>Garmin International</text>
    </link>
    <time>2016-09-15T12:26:44Z</time>
    <bounds maxlat="44.44145679473877" maxlon="11.451637661084533" minlat="44.33558464050293" minlon="11.413786914199591"/>
  </metadata>

  <trk>
    <name>ACTIVE LOG</name>
    <trkseg>
      <trkpt lat="44.44145679473877" lon="11.446595191955566">
        <ele>66</ele>
        <time>2005-03-13T07:42:06Z</time>
      </trkpt>
      <trkpt lat="44.440641403198242" lon="11.446230411529541">
        <ele>67</ele>
        <time>2005-03-13T07:42:27Z</time>
      </trkpt>
      <trkpt lat="44.440233707427979" lon="11.446187496185303">
        <ele>67</ele>
        <time>2005-03-13T07:42:39Z</time>
      </trkpt>
      <trkpt lat="44.439482688903809" lon="11.445908462628722">
        <ele>68</ele>
        <time>2005-03-13T07:42:53Z</time>
      </trkpt>
      <trkpt lat="44.438045024871826" lon="11.445329189300537">
        <ele>68</ele>
        <time>2005-03-13T07:43:14Z</time>
      </trkpt>
      <trkpt lat="44.436800479888916" lon="11.444814205169678">
        <ele>68</ele>
        <time>2005-03-13T07:43:31Z</time>
      </trkpt>
      <trkpt lat="44.435470104217529" lon="11.444213390350342">
        <ele>69</ele>
        <time>2005-03-13T07:43:52Z</time>
      </trkpt>
      <trkpt lat="44.434354305267334" lon="11.444041728973389">
        <ele>70</ele>
        <time>2005-03-13T07:44:10Z</time>
      </trkpt>
      <trkpt lat="44.433474540710449" lon="11.443698406219482">
        <ele>71</ele>
        <time>2005-03-13T07:44:27Z</time>
      </trkpt>
      <trkpt lat="44.433174133300781" lon="11.443526661023498">
        <ele>72</ele>
        <time>2005-03-13T07:44:33Z</time>
      </trkpt>
      <trkpt lat="44.433023929595947" lon="11.443333625793457">
        <ele>73</ele>
        <time>2005-03-13T07:44:37Z</time>
      </trkpt>
      <trkpt lat="44.432358741760254" lon="11.442453861236572">
        <ele>74</ele>
        <time>2005-03-13T07:44:56Z</time>
      </trkpt>
      <trkpt lat="44.431779384613037" lon="11.44176721572876">
        <ele>76</ele>
        <time>2005-03-13T07:45:14Z</time>
      </trkpt>
      <trkpt lat="44.431393062695861" lon="11.4412522315979">
        <ele>77</ele>
        <time>2005-03-13T07:45:29Z</time>
      </trkpt>
      <trkpt lat="44.431157112121582" lon="11.440823078155518">
        <ele>78</ele>
        <time>2005-03-13T07:45:39Z</time>
      </trkpt>
      <trkpt lat="44.431006908416748" lon="11.44052267074585">
        <ele>78</ele>
        <time>2005-03-13T07:45:45Z</time>
      </trkpt>
      <trkpt lat="44.430663585662842" lon="11.439964771270752">
        <ele>81</ele>
        <time>2005-03-13T07:45:57Z</time>
      </trkpt>
      <trkpt lat="44.429762363433838" lon="11.438891887664795">
        <ele>83</ele>
        <time>2005-03-13T07:46:21Z</time>
      </trkpt>
      <trkpt lat="44.429075717926025" lon="11.438098037615418">
        <ele>84</ele>
        <time>2005-03-13T07:46:41Z</time>
      </trkpt>
      <trkpt lat="44.428582191467285" lon="11.437282562255859">
        <ele>85</ele>
        <time>2005-03-13T07:47:03Z</time>
      </trkpt>
      <trkpt lat="44.428303241729736" lon="11.436252593994141">
        <ele>86</ele>
        <time>2005-03-13T07:47:24Z</time>
      </trkpt>
      <trkpt lat="44.428067207336426" lon="11.43530854023993">
        <ele>87</ele>
        <time>2005-03-13T07:47:42Z</time>
      </trkpt>
      <trkpt lat="44.427809715270996" lon="11.434299862012267">
        <ele>86</ele>
        <time>2005-03-13T07:48:00Z</time>
      </trkpt>
      <trkpt lat="44.427444934844971" lon="11.433677673339844">
        <ele>86</ele>
        <time>2005-03-13T07:48:14Z</time>
      </trkpt>
      <trkpt lat="44.42671537399292" lon="11.432797908782959">
        <ele>86</ele>
        <time>2005-03-13T07:48:35Z</time>
      </trkpt>
      <trkpt lat="44.426393508911133" lon="11.432540416717529">
        <ele>84</ele>
        <time>2005-03-13T07:48:44Z</time>
      </trkpt>
      <trkpt lat="44.425771236419678" lon="11.4322829246521">
        <ele>80</ele>
        <time>2005-03-13T07:48:55Z</time>
      </trkpt>
      <trkpt lat="44.425621032714844" lon="11.432240009307861">
        <ele>79</ele>
        <time>2005-03-13T07:48:57Z</time>
      </trkpt>
      <trkpt lat="44.425492286682129" lon="11.432154178619385">
        <ele>79</ele>
        <time>2005-03-13T07:48:59Z</time>
      </trkpt>
      <trkpt lat="44.424848640337586" lon="11.431446075439453">
        <ele>75</ele>
        <time>2005-03-13T07:49:08Z</time>
      </trkpt>
      <trkpt lat="44.423990165814757" lon="11.430394565686584">
        <ele>74</ele>
        <time>2005-03-13T07:49:23Z</time>
      </trkpt>
      <trkpt lat="44.423904418945313" lon="11.43028736114502">
        <ele>73</ele>
        <time>2005-03-13T07:49:26Z</time>
      </trkpt>
      <trkpt lat="44.423947334289551" lon="11.430137241259217">
        <ele>72</ele>
        <time>2005-03-13T07:49:31Z</time>
      </trkpt>
      <trkpt lat="44.424140537157655" lon="11.429901123046875">
        <ele>70</ele>
        <time>2005-03-13T07:49:37Z</time>
      </trkpt>
      <trkpt lat="44.424548065289855" lon="11.429429138079286">
        <ele>69</ele>
        <time>2005-03-13T07:49:49Z</time>
      </trkpt>
      <trkpt lat="44.424934387207031" lon="11.428956985473633">
        <ele>69</ele>
        <time>2005-03-13T07:50:07Z</time>
      </trkpt>
      <trkpt lat="44.425234794616699" lon="11.428635120391846">
        <ele>70</ele>
        <time>2005-03-13T07:50:19Z</time>
      </trkpt>
      <trkpt lat="44.425621032714844" lon="11.428120136260986">
        <ele>70</ele>
        <time>2005-03-13T07:50:35Z</time>
      </trkpt>
      <trkpt lat="44.425942897796631" lon="11.427562236785889">
        <ele>70</ele>
        <time>2005-03-13T07:50:52Z</time>
      </trkpt>
      <trkpt lat="44.42566386424005" lon="11.427304660901427">
        <ele>69</ele>
        <time>2005-03-13T07:51:02Z</time>
      </trkpt>
      <trkpt lat="44.424848640337586" lon="11.4267897605896">
        <ele>69</ele>
        <time>2005-03-13T07:51:28Z</time>
      </trkpt>
      <trkpt lat="44.424312114715576" lon="11.426446437835693">
        <ele>70</ele>
        <time>2005-03-13T07:51:46Z</time>
      </trkpt>
      <trkpt lat="44.423925876617432" lon="11.426231861114502">
        <ele>70</ele>
        <time>2005-03-13T07:52:01Z</time>
      </trkpt>
      <trkpt lat="44.423367977142334" lon="11.425974369049072">
        <ele>71</ele>
        <time>2005-03-13T07:52:21Z</time>
      </trkpt>
      <trkpt lat="44.423003196716309" lon="11.425609588623047">
        <ele>70</ele>
        <time>2005-03-13T07:52:36Z</time>
      </trkpt>
      <trkpt lat="44.422573959454894" lon="11.425416469573975">
        <ele>71</ele>
        <time>2005-03-13T07:52:50Z</time>
      </trkpt>
      <trkpt lat="44.42216626368463" lon="11.425201892852783">
        <ele>72</ele>
        <time>2005-03-13T07:53:08Z</time>
      </trkpt>
      <trkpt lat="44.421844482421875" lon="11.425051689147949">
        <ele>72</ele>
        <time>2005-03-13T07:53:21Z</time>
      </trkpt>
      <trkpt lat="44.421651363372803" lon="11.425073063001037">
        <ele>73</ele>
        <time>2005-03-13T07:53:28Z</time>
      </trkpt>
      <trkpt lat="44.421586990356445" lon="11.424987316131592">
        <ele>74</ele>
        <time>2005-03-13T07:53:32Z</time>
      </trkpt>
      <trkpt lat="44.421608364209533" lon="11.424901485443115">
        <ele>73</ele>
        <time>2005-03-13T07:53:41Z</time>
      </trkpt>
      <trkpt lat="44.421629905700684" lon="11.424837112426758">
        <ele>74</ele>
        <time>2005-03-13T07:53:45Z</time>
      </trkpt>
      <trkpt lat="44.421780109405518" lon="11.424322128295898">
        <ele>74</ele>
        <time>2005-03-13T07:53:58Z</time>
      </trkpt>
      <trkpt lat="44.421737194061279" lon="11.424236297607422">
        <ele>73</ele>
        <time>2005-03-13T07:54:00Z</time>
      </trkpt>
      <trkpt lat="44.421672821044922" lon="11.424193382263184">
        <ele>73</ele>
        <time>2005-03-13T07:54:02Z</time>
      </trkpt>
      <trkpt lat="44.421072006225586" lon="11.423850059509277">
        <ele>74</ele>
        <time>2005-03-13T07:54:19Z</time>
      </trkpt>
      <trkpt lat="44.420449733734131" lon="11.423506736755371">
        <ele>74</ele>
        <time>2005-03-13T07:54:42Z</time>
      </trkpt>
      <trkpt lat="44.419784462079406" lon="11.42324916087091">
        <ele>75</ele>
        <time>2005-03-13T07:55:05Z</time>
      </trkpt>
      <trkpt lat="44.419033527374268" lon="11.423099040985107">
        <ele>78</ele>
        <time>2005-03-13T07:55:32Z</time>
      </trkpt>
      <trkpt lat="44.418389797210693" lon="11.423013210296631">
        <ele>76</ele>
        <time>2005-03-13T07:55:50Z</time>
      </trkpt>
      <trkpt lat="44.417595863342285" lon="11.423056125640869">
        <ele>77</ele>
        <time>2005-03-13T07:56:11Z</time>
      </trkpt>
      <trkpt lat="44.416737640276551" lon="11.42324916087091">
        <ele>77</ele>
        <time>2005-03-13T07:56:34Z</time>
      </trkpt>
      <trkpt lat="44.415900707244873" lon="11.423506736755371">
        <ele>78</ele>
        <time>2005-03-13T07:56:59Z</time>
      </trkpt>
      <trkpt lat="44.415171062573791" lon="11.423721313476562">
        <ele>79</ele>
        <time>2005-03-13T07:57:21Z</time>
      </trkpt>
      <trkpt lat="44.414184093475342" lon="11.423978805541992">
        <ele>81</ele>
        <time>2005-03-13T07:57:49Z</time>
      </trkpt>
      <trkpt lat="44.413433074951172" lon="11.424214839935303">
        <ele>82</ele>
        <time>2005-03-13T07:58:09Z</time>
      </trkpt>
      <trkpt lat="44.412553310394287" lon="11.424429416656494">
        <ele>82</ele>
        <time>2005-03-13T07:58:31Z</time>
      </trkpt>
      <trkpt lat="44.411845207214355" lon="11.424643993377686">
        <ele>82</ele>
        <time>2005-03-13T07:58:49Z</time>
      </trkpt>
      <trkpt lat="44.410922527313232" lon="11.424901485443115">
        <ele>83</ele>
        <time>2005-03-13T07:59:13Z</time>
      </trkpt>
      <trkpt lat="44.410150134935975" lon="11.424987316131592">
        <ele>84</ele>
        <time>2005-03-13T07:59:34Z</time>
      </trkpt>
      <trkpt lat="44.409570693969727" lon="11.424880027770996">
        <ele>87</ele>
        <time>2005-03-13T08:05:36Z</time>
      </trkpt>
      <trkpt lat="44.409270286560059" lon="11.424880027770996">
        <ele>87</ele>
        <time>2005-03-13T08:05:51Z</time>
      </trkpt>
      <trkpt lat="44.408626640215516" lon="11.42479419708252">
        <ele>88</ele>
        <time>2005-03-13T08:06:14Z</time>
      </trkpt>
      <trkpt lat="44.407832622528076" lon="11.424751281738281">
        <ele>89</ele>
        <time>2005-03-13T08:06:39Z</time>
      </trkpt>
      <trkpt lat="44.406909858807921" lon="11.424686908721924">
        <ele>89</ele>
        <time>2005-03-13T08:07:06Z</time>
      </trkpt>
      <trkpt lat="44.406180381774902" lon="11.424450874328613">
        <ele>90</ele>
        <time>2005-03-13T08:07:28Z</time>
      </trkpt>
      <trkpt lat="44.405665397644043" lon="11.423957264050841">
        <ele>93</ele>
        <time>2005-03-13T08:07:50Z</time>
      </trkpt>
      <trkpt lat="44.405279159545898" lon="11.423399364575744">
        <ele>96</ele>
        <time>2005-03-13T08:08:10Z</time>
      </trkpt>
      <trkpt lat="44.404721260070801" lon="11.422863006591797">
        <ele>98</ele>
        <time>2005-03-13T08:08:33Z</time>
      </trkpt>
      <trkpt lat="44.404120361432433" lon="11.422648429870605">
        <ele>98</ele>
        <time>2005-03-13T08:08:51Z</time>
      </trkpt>
      <trkpt lat="44.403283596038818" lon="11.422820091247559">
        <ele>95</ele>
        <time>2005-03-13T08:09:09Z</time>
      </trkpt>
      <trkpt lat="44.402468204498291" lon="11.42329216003418">
        <ele>94</ele>
        <time>2005-03-13T08:09:26Z</time>
      </trkpt>
      <trkpt lat="44.401717185974121" lon="11.42378568649292">
        <ele>94</ele>
        <time>2005-03-13T08:09:44Z</time>
      </trkpt>
      <trkpt lat="44.400966167449951" lon="11.424236297607422">
        <ele>95</ele>
        <time>2005-03-13T08:10:04Z</time>
      </trkpt>
      <trkpt lat="44.400515640154481" lon="11.424493789672852">
        <ele>96</ele>
        <time>2005-03-13T08:10:18Z</time>
      </trkpt>
      <trkpt lat="44.399850368499756" lon="11.424901485443115">
        <ele>97</ele>
        <time>2005-03-13T08:10:40Z</time>
      </trkpt>
      <trkpt lat="44.399356758221984" lon="11.425201892852783">
        <ele>98</ele>
        <time>2005-03-13T08:10:57Z</time>
      </trkpt>
      <trkpt lat="44.398627281188965" lon="11.425609588623047">
        <ele>100</ele>
        <time>2005-03-13T08:11:21Z</time>
      </trkpt>
      <trkpt lat="44.398176670074463" lon="11.425867080688477">
        <ele>100</ele>
        <time>2005-03-13T08:11:37Z</time>
      </trkpt>
      <trkpt lat="44.397661685943604" lon="11.426167488098145">
        <ele>101</ele>
        <time>2005-03-13T08:11:54Z</time>
      </trkpt>
      <trkpt lat="44.396867835894227" lon="11.426510810852051">
        <ele>102</ele>
        <time>2005-03-13T08:12:16Z</time>
      </trkpt>
      <trkpt lat="44.396073818206787" lon="11.426661014556885">
        <ele>101</ele>
        <time>2005-03-13T08:12:34Z</time>
      </trkpt>
      <trkpt lat="44.3954514618963" lon="11.426811218261719">
        <ele>101</ele>
        <time>2005-03-13T08:12:49Z</time>
      </trkpt>
      <trkpt lat="44.395365715026855" lon="11.426854133605957">
        <ele>101</ele>
        <time>2005-03-13T08:12:51Z</time>
      </trkpt>
      <trkpt lat="44.394121170043945" lon="11.427133083343506">
        <ele>101</ele>
        <time>2005-03-13T08:13:17Z</time>
      </trkpt>
      <trkpt lat="44.393048286437988" lon="11.427347660064697">
        <ele>102</ele>
        <time>2005-03-13T08:13:41Z</time>
      </trkpt>
      <trkpt lat="44.392254436388612" lon="11.42751932144165">
        <ele>103</ele>
        <time>2005-03-13T08:14:00Z</time>
      </trkpt>
      <trkpt lat="44.391460418701172" lon="11.427690982818604">
        <ele>104</ele>
        <time>2005-03-13T08:14:20Z</time>
      </trkpt>
      <trkpt lat="44.390773773193359" lon="11.427841186523438">
        <ele>105</ele>
        <time>2005-03-13T08:14:38Z</time>
      </trkpt>
      <trkpt lat="44.389851093292236" lon="11.428098678588867">
        <ele>106</ele>
        <time>2005-03-13T08:15:02Z</time>
      </trkpt>
      <trkpt lat="44.389293193817139" lon="11.428678035736084">
        <ele>107</ele>
        <time>2005-03-13T08:15:20Z</time>
      </trkpt>
      <trkpt lat="44.389014160260558" lon="11.429257392883301">
        <ele>108</ele>
        <time>2005-03-13T08:15:32Z</time>
      </trkpt>
      <trkpt lat="44.388885498046875" lon="11.429407596588135">
        <ele>109</ele>
        <time>2005-03-13T08:15:36Z</time>
      </trkpt>
      <trkpt lat="44.388670921325684" lon="11.429686462506652">
        <ele>109</ele>
        <time>2005-03-13T08:15:43Z</time>
      </trkpt>
      <trkpt lat="44.388563632965088" lon="11.429815292358398">
        <ele>108</ele>
        <time>2005-03-13T08:15:46Z</time>
      </trkpt>
      <trkpt lat="44.388284683227539" lon="11.429836833849549">
        <ele>109</ele>
        <time>2005-03-13T08:15:52Z</time>
      </trkpt>
      <trkpt lat="44.387812614440918" lon="11.429643630981445">
        <ele>109</ele>
        <time>2005-03-13T08:16:03Z</time>
      </trkpt>
      <trkpt lat="44.386997222900391" lon="11.429321765899658">
        <ele>109</ele>
        <time>2005-03-13T08:16:23Z</time>
      </trkpt>
      <trkpt lat="44.386160373687744" lon="11.42897835932672">
        <ele>110</ele>
        <time>2005-03-13T08:16:45Z</time>
      </trkpt>
      <trkpt lat="44.385387897491455" lon="11.428699493408203">
        <ele>112</ele>
        <time>2005-03-13T08:17:06Z</time>
      </trkpt>
      <trkpt lat="44.384958660230041" lon="11.42852783203125">
        <ele>114</ele>
        <time>2005-03-13T08:17:21Z</time>
      </trkpt>
      <trkpt lat="44.384829998016357" lon="11.428570663556457">
        <ele>115</ele>
        <time>2005-03-13T08:17:26Z</time>
      </trkpt>
      <trkpt lat="44.384100437164307" lon="11.428356170654297">
        <ele>115</ele>
        <time>2005-03-13T08:17:49Z</time>
      </trkpt>
      <trkpt lat="44.383585536852479" lon="11.428163135424256">
        <ele>117</ele>
        <time>2005-03-13T08:18:08Z</time>
      </trkpt>
      <trkpt lat="44.383413791656494" lon="11.428012764081359">
        <ele>115</ele>
        <time>2005-03-13T08:18:12Z</time>
      </trkpt>
      <trkpt lat="44.383242130279541" lon="11.42803430557251">
        <ele>114</ele>
        <time>2005-03-13T08:18:16Z</time>
      </trkpt>
      <trkpt lat="44.382834434509277" lon="11.428141593933105">
        <ele>114</ele>
        <time>2005-03-13T08:18:28Z</time>
      </trkpt>
      <trkpt lat="44.382748603820801" lon="11.427969932556152">
        <ele>113</ele>
        <time>2005-03-13T08:18:32Z</time>
      </trkpt>
      <trkpt lat="44.382619941607118" lon="11.42751932144165">
        <ele>112</ele>
        <time>2005-03-13T08:18:41Z</time>
      </trkpt>
      <trkpt lat="44.382147789001465" lon="11.426832675933838">
        <ele>113</ele>
        <time>2005-03-13T08:19:01Z</time>
      </trkpt>
      <trkpt lat="44.381461059674621" lon="11.426382064819336">
        <ele>113</ele>
        <time>2005-03-13T08:19:21Z</time>
      </trkpt>
      <trkpt lat="44.380903160199523" lon="11.426360607147217">
        <ele>115</ele>
        <time>2005-03-13T08:19:39Z</time>
      </trkpt>
      <trkpt lat="44.380388259887695" lon="11.426317691802979">
        <ele>116</ele>
        <time>2005-03-13T08:19:58Z</time>
      </trkpt>
      <trkpt lat="44.379701614379883" lon="11.426167488098145">
        <ele>115</ele>
        <time>2005-03-13T08:20:17Z</time>
      </trkpt>
      <trkpt lat="44.378929138183594" lon="11.426038658246398">
        <ele>117</ele>
        <time>2005-03-13T08:20:40Z</time>
      </trkpt>
      <trkpt lat="44.378371238708496" lon="11.425824165344238">
        <ele>119</ele>
        <time>2005-03-13T08:21:00Z</time>
      </trkpt>
      <trkpt lat="44.37828540802002" lon="11.425909996032715">
        <ele>119</ele>
        <time>2005-03-13T08:21:06Z</time>
      </trkpt>
      <trkpt lat="44.378178119659424" lon="11.426639640703797">
        <ele>120</ele>
        <time>2005-03-13T08:21:26Z</time>
      </trkpt>
      <trkpt lat="44.377555763348937" lon="11.426403522491455">
        <ele>121</ele>
        <time>2005-03-13T08:21:48Z</time>
      </trkpt>
      <trkpt lat="44.376826286315918" lon="11.426317691802979">
        <ele>122</ele>
        <time>2005-03-13T08:22:09Z</time>
      </trkpt>
      <trkpt lat="44.376010894775391" lon="11.426446437835693">
        <ele>123</ele>
        <time>2005-03-13T08:22:31Z</time>
      </trkpt>
      <trkpt lat="44.37502384185791" lon="11.426703929901123">
        <ele>125</ele>
        <time>2005-03-13T08:22:57Z</time>
      </trkpt>
      <trkpt lat="44.37427282333374" lon="11.426918506622314">
        <ele>125</ele>
        <time>2005-03-13T08:23:16Z</time>
      </trkpt>
      <trkpt lat="44.373178482055664" lon="11.42751932144165">
        <ele>127</ele>
        <time>2005-03-13T08:23:44Z</time>
      </trkpt>
      <trkpt lat="44.372513294219971" lon="11.427562236785889">
        <ele>129</ele>
        <time>2005-03-13T08:24:02Z</time>
      </trkpt>
      <trkpt lat="44.371848106384277" lon="11.427240371704102">
        <ele>132</ele>
        <time>2005-03-13T08:24:22Z</time>
      </trkpt>
      <trkpt lat="44.371483325958252" lon="11.427068710327148">
        <ele>136</ele>
        <time>2005-03-13T08:24:35Z</time>
      </trkpt>
      <trkpt lat="44.371140003204346" lon="11.426918506622314">
        <ele>138</ele>
        <time>2005-03-13T08:24:49Z</time>
      </trkpt>
      <trkpt lat="44.370603561401367" lon="11.426639640703797">
        <ele>139</ele>
        <time>2005-03-13T08:25:11Z</time>
      </trkpt>
      <trkpt lat="44.370324611663818" lon="11.42653226852417">
        <ele>142</ele>
        <time>2005-03-13T08:25:26Z</time>
      </trkpt>
      <trkpt lat="44.370195865631104" lon="11.42653226852417">
        <ele>144</ele>
        <time>2005-03-13T08:25:34Z</time>
      </trkpt>
      <trkpt lat="44.370195865631104" lon="11.426961421966553">
        <ele>146</ele>
        <time>2005-03-13T08:25:52Z</time>
      </trkpt>
      <trkpt lat="44.370174407958984" lon="11.427068710327148">
        <ele>146</ele>
        <time>2005-03-13T08:25:57Z</time>
      </trkpt>
      <trkpt lat="44.370002662763" lon="11.426918506622314">
        <ele>149</ele>
        <time>2005-03-13T08:26:11Z</time>
      </trkpt>
      <trkpt lat="44.369831085205078" lon="11.426854133605957">
        <ele>152</ele>
        <time>2005-03-13T08:26:23Z</time>
      </trkpt>
      <trkpt lat="44.369637966156006" lon="11.426832675933838">
        <ele>153</ele>
        <time>2005-03-13T08:26:37Z</time>
      </trkpt>
      <trkpt lat="44.369444763287902" lon="11.426875591278076">
        <ele>156</ele>
        <time>2005-03-13T08:26:49Z</time>
      </trkpt>
      <trkpt lat="44.369165897369385" lon="11.427111625671387">
        <ele>158</ele>
        <time>2005-03-13T08:27:10Z</time>
      </trkpt>
      <trkpt lat="44.368929862976074" lon="11.427347660064697">
        <ele>162</ele>
        <time>2005-03-13T08:27:26Z</time>
      </trkpt>
      <trkpt lat="44.368693828582764" lon="11.427626609802246">
        <ele>164</ele>
        <time>2005-03-13T08:27:46Z</time>
      </trkpt>
      <trkpt lat="44.368522167205811" lon="11.427862560376525">
        <ele>167</ele>
        <time>2005-03-13T08:28:03Z</time>
      </trkpt>
      <trkpt lat="44.368414878845215" lon="11.428227424621582">
        <ele>170</ele>
        <time>2005-03-13T08:28:22Z</time>
      </trkpt>
      <trkpt lat="44.368221759796143" lon="11.42852783203125">
        <ele>174</ele>
        <time>2005-03-13T08:28:42Z</time>
      </trkpt>
      <trkpt lat="44.36802864074707" lon="11.428678035736084">
        <ele>177</ele>
        <time>2005-03-13T08:28:58Z</time>
      </trkpt>
      <trkpt lat="44.36779260635376" lon="11.428892612457275">
        <ele>180</ele>
        <time>2005-03-13T08:29:18Z</time>
      </trkpt>
      <trkpt lat="44.367642402648926" lon="11.429064273834229">
        <ele>182</ele>
        <time>2005-03-13T08:29:31Z</time>
      </trkpt>
      <trkpt lat="44.367556571960449" lon="11.429493427276611">
        <ele>186</ele>
        <time>2005-03-13T08:29:51Z</time>
      </trkpt>
      <trkpt lat="44.36753511428833" lon="11.42977237701416">
        <ele>189</ele>
        <time>2005-03-13T08:30:04Z</time>
      </trkpt>
      <trkpt lat="44.367513740435243" lon="11.430137241259217">
        <ele>191</ele>
        <time>2005-03-13T08:30:19Z</time>
      </trkpt>
      <trkpt lat="44.36753511428833" lon="11.430587768554687">
        <ele>194</ele>
        <time>2005-03-13T08:30:37Z</time>
      </trkpt>
      <trkpt lat="44.367663860321045" lon="11.43078088760376">
        <ele>198</ele>
        <time>2005-03-13T08:30:49Z</time>
      </trkpt>
      <trkpt lat="44.367728233337402" lon="11.430802261456847">
        <ele>198</ele>
        <time>2005-03-13T08:30:53Z</time>
      </trkpt>
      <trkpt lat="44.367749691009521" lon="11.43078088760376">
        <ele>199</ele>
        <time>2005-03-13T08:30:55Z</time>
      </trkpt>
      <trkpt lat="44.367921436205506" lon="11.430587768554687">
        <ele>201</ele>
        <time>2005-03-13T08:31:11Z</time>
      </trkpt>
      <trkpt lat="44.368200302124023" lon="11.430308818817139">
        <ele>204</ele>
        <time>2005-03-13T08:31:29Z</time>
      </trkpt>
      <trkpt lat="44.368436336517334" lon="11.430158615112305">
        <ele>207</ele>
        <time>2005-03-13T08:31:46Z</time>
      </trkpt>
      <trkpt lat="44.368457794189453" lon="11.430330276489258">
        <ele>210</ele>
        <time>2005-03-13T08:31:55Z</time>
      </trkpt>
      <trkpt lat="44.3682861328125" lon="11.430609226226807">
        <ele>213</ele>
        <time>2005-03-13T08:32:15Z</time>
      </trkpt>
      <trkpt lat="44.368221759796143" lon="11.430716514587402">
        <ele>214</ele>
        <time>2005-03-13T08:32:22Z</time>
      </trkpt>
      <trkpt lat="44.368178760632873" lon="11.43101692199707">
        <ele>218</ele>
        <time>2005-03-13T08:32:36Z</time>
      </trkpt>
      <trkpt lat="44.368264675140381" lon="11.431317329406738">
        <ele>221</ele>
        <time>2005-03-13T08:32:53Z</time>
      </trkpt>
      <trkpt lat="44.368479335680604" lon="11.431682109832764">
        <ele>224</ele>
        <time>2005-03-13T08:33:12Z</time>
      </trkpt>
      <trkpt lat="44.368522167205811" lon="11.432068264111876">
        <ele>227</ele>
        <time>2005-03-13T08:33:29Z</time>
      </trkpt>
      <trkpt lat="44.368393421173096" lon="11.432347297668457">
        <ele>230</ele>
        <time>2005-03-13T08:33:44Z</time>
      </trkpt>
      <trkpt lat="44.368371963500977" lon="11.432540416717529">
        <ele>232</ele>
        <time>2005-03-13T08:33:53Z</time>
      </trkpt>
      <trkpt lat="44.368264675140381" lon="11.432862281799316">
        <ele>236</ele>
        <time>2005-03-13T08:34:08Z</time>
      </trkpt>
      <trkpt lat="44.368157386779785" lon="11.433248519897461">
        <ele>239</ele>
        <time>2005-03-13T08:34:26Z</time>
      </trkpt>
      <trkpt lat="44.368135929107666" lon="11.433591758832335">
        <ele>242</ele>
        <time>2005-03-13T08:34:42Z</time>
      </trkpt>
      <trkpt lat="44.36807163991034" lon="11.433870792388916">
        <ele>245</ele>
        <time>2005-03-13T08:34:57Z</time>
      </trkpt>
      <trkpt lat="44.367835521697998" lon="11.434063911437988">
        <ele>249</ele>
        <time>2005-03-13T08:35:16Z</time>
      </trkpt>
      <trkpt lat="44.367685317993164" lon="11.434085369110107">
        <ele>252</ele>
        <time>2005-03-13T08:35:27Z</time>
      </trkpt>
      <trkpt lat="44.367256164550781" lon="11.434106826782227">
        <ele>255</ele>
        <time>2005-03-13T08:35:52Z</time>
      </trkpt>
      <trkpt lat="44.367191791534424" lon="11.434106826782227">
        <ele>256</ele>
        <time>2005-03-13T08:35:56Z</time>
      </trkpt>
      <trkpt lat="44.367020130157471" lon="11.434085369110107">
        <ele>259</ele>
        <time>2005-03-13T08:36:06Z</time>
      </trkpt>
      <trkpt lat="44.366805637255311" lon="11.434385776519775">
        <ele>263</ele>
        <time>2005-03-13T08:36:23Z</time>
      </trkpt>
      <trkpt lat="44.366698265075684" lon="11.434814929962158">
        <ele>266</ele>
        <time>2005-03-13T08:36:42Z</time>
      </trkpt>
      <trkpt lat="44.366440773010254" lon="11.435072422027588">
        <ele>269</ele>
        <time>2005-03-13T08:37:02Z</time>
      </trkpt>
      <trkpt lat="44.366419315338135" lon="11.435093879699707">
        <ele>270</ele>
        <time>2005-03-13T08:37:04Z</time>
      </trkpt>
      <trkpt lat="44.366312026977539" lon="11.435501575469971">
        <ele>273</ele>
        <time>2005-03-13T08:37:23Z</time>
      </trkpt>
      <trkpt lat="44.366354858502746" lon="11.435608863830566">
        <ele>274</ele>
        <time>2005-03-13T08:37:30Z</time>
      </trkpt>
      <trkpt lat="44.366655265912414" lon="11.43552303314209">
        <ele>276</ele>
        <time>2005-03-13T08:37:52Z</time>
      </trkpt>
      <trkpt lat="44.366869926452637" lon="11.43552303314209">
        <ele>277</ele>
        <time>2005-03-13T08:38:04Z</time>
      </trkpt>
      <trkpt lat="44.366869926452637" lon="11.435694694519043">
        <ele>281</ele>
        <time>2005-03-13T08:38:13Z</time>
      </trkpt>
      <trkpt lat="44.366612434387207" lon="11.435887813568115">
        <ele>284</ele>
        <time>2005-03-13T08:38:33Z</time>
      </trkpt>
      <trkpt lat="44.366376399993896" lon="11.435995101928711">
        <ele>287</ele>
        <time>2005-03-13T08:38:51Z</time>
      </trkpt>
      <trkpt lat="44.366204738616943" lon="11.436123764142394">
        <ele>290</ele>
        <time>2005-03-13T08:39:03Z</time>
      </trkpt>
      <trkpt lat="44.365882873535156" lon="11.436316967010498">
        <ele>293</ele>
        <time>2005-03-13T08:39:22Z</time>
      </trkpt>
      <trkpt lat="44.365754127502441" lon="11.436402797698975">
        <ele>295</ele>
        <time>2005-03-13T08:39:31Z</time>
      </trkpt>
      <trkpt lat="44.365582466125488" lon="11.436531459912658">
        <ele>297</ele>
        <time>2005-03-13T08:39:42Z</time>
      </trkpt>
      <trkpt lat="44.365367889404297" lon="11.436896324157715">
        <ele>301</ele>
        <time>2005-03-13T08:40:01Z</time>
      </trkpt>
      <trkpt lat="44.365346431732178" lon="11.436917781829834">
        <ele>301</ele>
        <time>2005-03-13T08:40:03Z</time>
      </trkpt>
      <trkpt lat="44.365153312683105" lon="11.437089359387755">
        <ele>304</ele>
        <time>2005-03-13T08:40:16Z</time>
      </trkpt>
      <trkpt lat="44.365131938830018" lon="11.437218189239502">
        <ele>306</ele>
        <time>2005-03-13T08:40:20Z</time>
      </trkpt>
      <trkpt lat="44.365024566650391" lon="11.437454223632812">
        <ele>307</ele>
        <time>2005-03-13T08:40:31Z</time>
      </trkpt>
      <trkpt lat="44.364960193634033" lon="11.437475681304932">
        <ele>308</ele>
        <time>2005-03-13T08:40:35Z</time>
      </trkpt>
      <trkpt lat="44.364745616912842" lon="11.437969207763672">
        <ele>311</ele>
        <time>2005-03-13T08:40:56Z</time>
      </trkpt>
      <trkpt lat="44.364466667175293" lon="11.438398361206055">
        <ele>315</ele>
        <time>2005-03-13T08:41:16Z</time>
      </trkpt>
      <trkpt lat="44.364423835650086" lon="11.438720226287842">
        <ele>317</ele>
        <time>2005-03-13T08:41:28Z</time>
      </trkpt>
      <trkpt lat="44.36453104019165" lon="11.438870429992676">
        <ele>319</ele>
        <time>2005-03-13T08:41:36Z</time>
      </trkpt>
      <trkpt lat="44.364659786224365" lon="11.43876314163208">
        <ele>320</ele>
        <time>2005-03-13T08:41:43Z</time>
      </trkpt>
      <trkpt lat="44.364874362945557" lon="11.438419818878174">
        <ele>324</ele>
        <time>2005-03-13T08:42:02Z</time>
      </trkpt>
      <trkpt lat="44.365174770355225" lon="11.438205158337951">
        <ele>326</ele>
        <time>2005-03-13T08:42:16Z</time>
      </trkpt>
      <trkpt lat="44.365668296813965" lon="11.437926292419434">
        <ele>328</ele>
        <time>2005-03-13T08:42:37Z</time>
      </trkpt>
      <trkpt lat="44.365990161895752" lon="11.437625885009766">
        <ele>332</ele>
        <time>2005-03-13T08:42:54Z</time>
      </trkpt>
      <trkpt lat="44.366226196289063" lon="11.43751859664917">
        <ele>335</ele>
        <time>2005-03-13T08:43:05Z</time>
      </trkpt>
      <trkpt lat="44.366419315338135" lon="11.437411308288574">
        <ele>338</ele>
        <time>2005-03-13T08:43:16Z</time>
      </trkpt>
      <trkpt lat="44.366719722747803" lon="11.43726110458374">
        <ele>340</ele>
        <time>2005-03-13T08:43:34Z</time>
      </trkpt>
      <trkpt lat="44.366891384124756" lon="11.437239563092589">
        <ele>342</ele>
        <time>2005-03-13T08:43:43Z</time>
      </trkpt>
      <trkpt lat="44.366934299468994" lon="11.437325477600098">
        <ele>343</ele>
        <time>2005-03-13T08:43:47Z</time>
      </trkpt>
      <trkpt lat="44.367020130157471" lon="11.437690341845155">
        <ele>345</ele>
        <time>2005-03-13T08:44:05Z</time>
      </trkpt>
      <trkpt lat="44.367148876190186" lon="11.437947833910584">
        <ele>348</ele>
        <time>2005-03-13T08:44:19Z</time>
      </trkpt>
      <trkpt lat="44.367320537567139" lon="11.438248241320252">
        <ele>351</ele>
        <time>2005-03-13T08:44:37Z</time>
      </trkpt>
      <trkpt lat="44.367191791534424" lon="11.438462734222412">
        <ele>353</ele>
        <time>2005-03-13T08:44:49Z</time>
      </trkpt>
      <trkpt lat="44.367148876190186" lon="11.438505565747619">
        <ele>354</ele>
        <time>2005-03-13T08:44:51Z</time>
      </trkpt>
      <trkpt lat="44.367170333862305" lon="11.43880614079535">
        <ele>357</ele>
        <time>2005-03-13T08:45:01Z</time>
      </trkpt>
      <trkpt lat="44.367191791534424" lon="11.438827514648438">
        <ele>357</ele>
        <time>2005-03-13T08:45:02Z</time>
      </trkpt>
      <trkpt lat="44.367320537567139" lon="11.438870429992676">
        <ele>360</ele>
        <time>2005-03-13T08:45:08Z</time>
      </trkpt>
      <trkpt lat="44.367256164550781" lon="11.439063465222716">
        <ele>361</ele>
        <time>2005-03-13T08:45:17Z</time>
      </trkpt>
      <trkpt lat="44.367020130157471" lon="11.439106464385986">
        <ele>363</ele>
        <time>2005-03-13T08:45:31Z</time>
      </trkpt>
      <trkpt lat="44.366977214813232" lon="11.439149379730225">
        <ele>364</ele>
        <time>2005-03-13T08:45:34Z</time>
      </trkpt>
      <trkpt lat="44.366827011108398" lon="11.439406871795654">
        <ele>367</ele>
        <time>2005-03-13T08:45:47Z</time>
      </trkpt>
      <trkpt lat="44.366569519042969" lon="11.439728736877441">
        <ele>370</ele>
        <time>2005-03-13T08:46:07Z</time>
      </trkpt>
      <trkpt lat="44.366376399993896" lon="11.440050601959229">
        <ele>372</ele>
        <time>2005-03-13T08:46:22Z</time>
      </trkpt>
      <trkpt lat="44.366161823272705" lon="11.440308094024658">
        <ele>376</ele>
        <time>2005-03-13T08:46:39Z</time>
      </trkpt>
      <trkpt lat="44.36603307723999" lon="11.440780162811279">
        <ele>377</ele>
        <time>2005-03-13T08:46:55Z</time>
      </trkpt>
      <trkpt lat="44.366011619567871" lon="11.441059112548828">
        <ele>380</ele>
        <time>2005-03-13T08:47:00Z</time>
      </trkpt>
      <trkpt lat="44.365775585174561" lon="11.441595638170838">
        <ele>382</ele>
        <time>2005-03-13T08:47:13Z</time>
      </trkpt>
      <trkpt lat="44.365646839141846" lon="11.441852962598205">
        <ele>384</ele>
        <time>2005-03-13T08:47:28Z</time>
      </trkpt>
      <trkpt lat="44.365603923797607" lon="11.441852962598205">
        <ele>382</ele>
        <time>2005-03-13T09:11:47Z</time>
      </trkpt>
      <trkpt lat="44.365496635437012" lon="11.442067623138428">
        <ele>384</ele>
        <time>2005-03-13T09:12:00Z</time>
      </trkpt>
      <trkpt lat="44.365324974060059" lon="11.442325115203857">
        <ele>385</ele>
        <time>2005-03-13T09:12:13Z</time>
      </trkpt>
      <trkpt lat="44.36504602432251" lon="11.442604064941406">
        <ele>385</ele>
        <time>2005-03-13T09:12:31Z</time>
      </trkpt>
      <trkpt lat="44.364681160077453" lon="11.442861640825868">
        <ele>385</ele>
        <time>2005-03-13T09:12:48Z</time>
      </trkpt>
      <trkpt lat="44.36453104019165" lon="11.443290710449219">
        <ele>386</ele>
        <time>2005-03-13T09:13:02Z</time>
      </trkpt>
      <trkpt lat="44.36453104019165" lon="11.443827236071229">
        <ele>389</ele>
        <time>2005-03-13T09:13:19Z</time>
      </trkpt>
      <trkpt lat="44.364402294158936" lon="11.444299221038818">
        <ele>392</ele>
        <time>2005-03-13T09:13:36Z</time>
      </trkpt>
      <trkpt lat="44.364144802093506" lon="11.444664001464844">
        <ele>392</ele>
        <time>2005-03-13T09:13:52Z</time>
      </trkpt>
      <trkpt lat="44.363694190979004" lon="11.445178985595703">
        <ele>392</ele>
        <time>2005-03-13T09:14:10Z</time>
      </trkpt>
      <trkpt lat="44.363157665356994" lon="11.445844173431396">
        <ele>392</ele>
        <time>2005-03-13T09:14:33Z</time>
      </trkpt>
      <trkpt lat="44.362728595733643" lon="11.446316158398986">
        <ele>392</ele>
        <time>2005-03-13T09:14:51Z</time>
      </trkpt>
      <trkpt lat="44.36234244145453" lon="11.446552276611328">
        <ele>394</ele>
        <time>2005-03-13T09:15:08Z</time>
      </trkpt>
      <trkpt lat="44.361999034881592" lon="11.44700288772583">
        <ele>397</ele>
        <time>2005-03-13T09:15:26Z</time>
      </trkpt>
      <trkpt lat="44.361376762390137" lon="11.447475040331483">
        <ele>397</ele>
        <time>2005-03-13T09:15:50Z</time>
      </trkpt>
      <trkpt lat="44.360818862915039" lon="11.447861194610596">
        <ele>398</ele>
        <time>2005-03-13T09:16:11Z</time>
      </trkpt>
      <trkpt lat="44.360346794128418" lon="11.448225975036621">
        <ele>400</ele>
        <time>2005-03-13T09:16:31Z</time>
      </trkpt>
      <trkpt lat="44.359939098358154" lon="11.448547840118408">
        <ele>402</ele>
        <time>2005-03-13T09:16:49Z</time>
      </trkpt>
      <trkpt lat="44.359703063964844" lon="11.448676586151123">
        <ele>406</ele>
        <time>2005-03-13T09:17:00Z</time>
      </trkpt>
      <trkpt lat="44.359467029571533" lon="11.44869796000421">
        <ele>409</ele>
        <time>2005-03-13T09:17:10Z</time>
      </trkpt>
      <trkpt lat="44.359424114227295" lon="11.44869796000421">
        <ele>410</ele>
        <time>2005-03-13T09:17:12Z</time>
      </trkpt>
      <trkpt lat="44.35929536819458" lon="11.44869796000421">
        <ele>412</ele>
        <time>2005-03-13T09:17:19Z</time>
      </trkpt>
      <trkpt lat="44.359102165326476" lon="11.44874095916748">
        <ele>414</ele>
        <time>2005-03-13T09:17:32Z</time>
      </trkpt>
      <trkpt lat="44.358994960784912" lon="11.4487624168396">
        <ele>415</ele>
        <time>2005-03-13T09:17:38Z</time>
      </trkpt>
      <trkpt lat="44.35880184173584" lon="11.449127197265625">
        <ele>418</ele>
        <time>2005-03-13T09:17:56Z</time>
      </trkpt>
      <trkpt lat="44.358716011047363" lon="11.449599266052246">
        <ele>420</ele>
        <time>2005-03-13T09:18:14Z</time>
      </trkpt>
      <trkpt lat="44.358565807342529" lon="11.449942588806152">
        <ele>423</ele>
        <time>2005-03-13T09:18:28Z</time>
      </trkpt>
      <trkpt lat="44.358479976654053" lon="11.450114334002137">
        <ele>424</ele>
        <time>2005-03-13T09:18:35Z</time>
      </trkpt>
      <trkpt lat="44.358115196228027" lon="11.450457572937012">
        <ele>428</ele>
        <time>2005-03-13T09:18:55Z</time>
      </trkpt>
      <trkpt lat="44.357900619506836" lon="11.450586318969727">
        <ele>428</ele>
        <time>2005-03-13T09:19:08Z</time>
      </trkpt>
      <trkpt lat="44.357535839080811" lon="11.450672065839171">
        <ele>428</ele>
        <time>2005-03-13T09:19:45Z</time>
      </trkpt>
      <trkpt lat="44.357106685638428" lon="11.450543403625488">
        <ele>427</ele>
        <time>2005-03-13T09:20:00Z</time>
      </trkpt>
      <trkpt lat="44.356956481933594" lon="11.450414741411805">
        <ele>427</ele>
        <time>2005-03-13T09:20:13Z</time>
      </trkpt>
      <trkpt lat="44.356720363721251" lon="11.450307369232178">
        <ele>430</ele>
        <time>2005-03-13T09:20:30Z</time>
      </trkpt>
      <trkpt lat="44.356527328491211" lon="11.450264537706971">
        <ele>433</ele>
        <time>2005-03-13T09:20:42Z</time>
      </trkpt>
      <trkpt lat="44.356312835589051" lon="11.450328826904297">
        <ele>437</ele>
        <time>2005-03-13T09:20:55Z</time>
      </trkpt>
      <trkpt lat="44.356098175048828" lon="11.450371658429503">
        <ele>439</ele>
        <time>2005-03-13T09:21:08Z</time>
      </trkpt>
      <trkpt lat="44.355947971343994" lon="11.450328826904297">
        <ele>442</ele>
        <time>2005-03-13T09:21:20Z</time>
      </trkpt>
      <trkpt lat="44.355733394622803" lon="11.450157165527344">
        <ele>446</ele>
        <time>2005-03-13T09:21:37Z</time>
      </trkpt>
      <trkpt lat="44.355583190917969" lon="11.449985504150391">
        <ele>449</ele>
        <time>2005-03-13T09:21:52Z</time>
      </trkpt>
      <trkpt lat="44.355497360229492" lon="11.449921131134033">
        <ele>450</ele>
        <time>2005-03-13T09:21:59Z</time>
      </trkpt>
      <trkpt lat="44.35534724034369" lon="11.449942588806152">
        <ele>453</ele>
        <time>2005-03-13T09:22:07Z</time>
      </trkpt>
      <trkpt lat="44.355089664459229" lon="11.450049877166748">
        <ele>456</ele>
        <time>2005-03-13T09:22:22Z</time>
      </trkpt>
      <trkpt lat="44.355046665295959" lon="11.450092792510986">
        <ele>457</ele>
        <time>2005-03-13T09:22:25Z</time>
      </trkpt>
      <trkpt lat="44.35481071472168" lon="11.450200080871582">
        <ele>461</ele>
        <time>2005-03-13T09:22:39Z</time>
      </trkpt>
      <trkpt lat="44.354617595672607" lon="11.450307369232178">
        <ele>464</ele>
        <time>2005-03-13T09:22:49Z</time>
      </trkpt>
      <trkpt lat="44.354424476623535" lon="11.450436115264893">
        <ele>467</ele>
        <time>2005-03-13T09:22:59Z</time>
      </trkpt>
      <trkpt lat="44.354166984558105" lon="11.450800895690918">
        <ele>470</ele>
        <time>2005-03-13T09:23:18Z</time>
      </trkpt>
      <trkpt lat="44.354016780853271" lon="11.451380336657166">
        <ele>469</ele>
        <time>2005-03-13T09:23:37Z</time>
      </trkpt>
      <trkpt lat="44.353823661804199" lon="11.451637661084533">
        <ele>471</ele>
        <time>2005-03-13T09:23:48Z</time>
      </trkpt>
      <trkpt lat="44.353737831115723" lon="11.451530540362">
        <ele>471</ele>
        <time>2005-03-13T09:23:53Z</time>
      </trkpt>
      <trkpt lat="44.353287220001221" lon="11.451423168182373">
        <ele>472</ele>
        <time>2005-03-13T09:24:12Z</time>
      </trkpt>
      <trkpt lat="44.352622032165527" lon="11.451530540362">
        <ele>471</ele>
        <time>2005-03-13T09:24:33Z</time>
      </trkpt>
      <trkpt lat="44.352471828460693" lon="11.451530540362">
        <ele>471</ele>
        <time>2005-03-13T09:24:36Z</time>
      </trkpt>
      <trkpt lat="44.351956760510802" lon="11.45148754119873">
        <ele>471</ele>
        <time>2005-03-13T09:24:50Z</time>
      </trkpt>
      <trkpt lat="44.351270198822021" lon="11.451573371887207">
        <ele>470</ele>
        <time>2005-03-13T09:25:11Z</time>
      </trkpt>
      <trkpt lat="44.350840961560607" lon="11.451637661084533">
        <ele>467</ele>
        <time>2005-03-13T09:25:20Z</time>
      </trkpt>
      <trkpt lat="44.350454807281494" lon="11.451551914215088">
        <ele>465</ele>
        <time>2005-03-13T09:25:26Z</time>
      </trkpt>
      <trkpt lat="44.350090026855469" lon="11.451337337493896">
        <ele>464</ele>
        <time>2005-03-13T09:25:33Z</time>
      </trkpt>
      <trkpt lat="44.349725162610412" lon="11.451165676116943">
        <ele>467</ele>
        <time>2005-03-13T09:25:46Z</time>
      </trkpt>
      <trkpt lat="44.349510669708252" lon="11.451101303100586">
        <ele>471</ele>
        <time>2005-03-13T09:25:55Z</time>
      </trkpt>
      <trkpt lat="44.349145889282227" lon="11.45099401473999">
        <ele>473</ele>
        <time>2005-03-13T09:26:11Z</time>
      </trkpt>
      <trkpt lat="44.348587989807129" lon="11.450800895690918">
        <ele>475</ele>
        <time>2005-03-13T09:26:34Z</time>
      </trkpt>
      <trkpt lat="44.348094463348389" lon="11.45050048828125">
        <ele>478</ele>
        <time>2005-03-13T09:26:54Z</time>
      </trkpt>
      <trkpt lat="44.347751140594482" lon="11.450221538543701">
        <ele>481</ele>
        <time>2005-03-13T09:27:10Z</time>
      </trkpt>
      <trkpt lat="44.34730052947998" lon="11.449813758954406">
        <ele>484</ele>
        <time>2005-03-13T09:27:32Z</time>
      </trkpt>
      <trkpt lat="44.346935665234923" lon="11.449363231658936">
        <ele>484</ele>
        <time>2005-03-13T09:27:50Z</time>
      </trkpt>
      <trkpt lat="44.346592426300049" lon="11.44955643452704">
        <ele>485</ele>
        <time>2005-03-13T09:28:09Z</time>
      </trkpt>
      <trkpt lat="44.3463134765625" lon="11.449663639068604">
        <ele>486</ele>
        <time>2005-03-13T09:28:31Z</time>
      </trkpt>
      <trkpt lat="44.346163272857666" lon="11.449685096740723">
        <ele>486</ele>
        <time>2005-03-13T09:28:49Z</time>
      </trkpt>
      <trkpt lat="44.345905780792236" lon="11.449728012084961">
        <ele>486</ele>
        <time>2005-03-13T09:29:26Z</time>
      </trkpt>
      <trkpt lat="44.345648288726807" lon="11.44974946975708">
        <ele>486</ele>
        <time>2005-03-13T09:29:47Z</time>
      </trkpt>
      <trkpt lat="44.345605373382568" lon="11.44974946975708">
        <ele>486</ele>
        <time>2005-03-13T09:29:50Z</time>
      </trkpt>
      <trkpt lat="44.345240592956543" lon="11.450049877166748">
        <ele>487</ele>
        <time>2005-03-13T09:30:11Z</time>
      </trkpt>
      <trkpt lat="44.344961559399962" lon="11.450307369232178">
        <ele>490</ele>
        <time>2005-03-13T09:30:28Z</time>
      </trkpt>
      <trkpt lat="44.344747066497803" lon="11.450328826904297">
        <ele>493</ele>
        <time>2005-03-13T09:30:40Z</time>
      </trkpt>
      <trkpt lat="44.344553863629699" lon="11.450157165527344">
        <ele>495</ele>
        <time>2005-03-13T09:30:59Z</time>
      </trkpt>
      <trkpt lat="44.344468116760254" lon="11.449878215789795">
        <ele>496</ele>
        <time>2005-03-13T09:31:17Z</time>
      </trkpt>
      <trkpt lat="44.344382286071777" lon="11.44955643452704">
        <ele>499</ele>
        <time>2005-03-13T09:31:32Z</time>
      </trkpt>
      <trkpt lat="44.344339370727539" lon="11.449320316314697">
        <ele>501</ele>
        <time>2005-03-13T09:31:45Z</time>
      </trkpt>
      <trkpt lat="44.344360828399658" lon="11.448955535888672">
        <ele>505</ele>
        <time>2005-03-13T09:32:04Z</time>
      </trkpt>
      <trkpt lat="44.344403659924865" lon="11.448590839281678">
        <ele>507</ele>
        <time>2005-03-13T09:32:21Z</time>
      </trkpt>
      <trkpt lat="44.344403659924865" lon="11.448183059692383">
        <ele>509</ele>
        <time>2005-03-13T09:32:40Z</time>
      </trkpt>
      <trkpt lat="44.344339370727539" lon="11.447818279266357">
        <ele>508</ele>
        <time>2005-03-13T09:32:52Z</time>
      </trkpt>
      <trkpt lat="44.34431791305542" lon="11.447539329528809">
        <ele>507</ele>
        <time>2005-03-13T09:32:56Z</time>
      </trkpt>
      <trkpt lat="44.344189167022705" lon="11.446766937151551">
        <ele>505</ele>
        <time>2005-03-13T09:33:09Z</time>
      </trkpt>
      <trkpt lat="44.343845760449767" lon="11.446487903594971">
        <ele>507</ele>
        <time>2005-03-13T09:33:25Z</time>
      </trkpt>
      <trkpt lat="44.343459606170654" lon="11.446359241381288">
        <ele>507</ele>
        <time>2005-03-13T09:33:43Z</time>
      </trkpt>
      <trkpt lat="44.343330860137939" lon="11.446166038513184">
        <ele>508</ele>
        <time>2005-03-13T09:33:56Z</time>
      </trkpt>
      <trkpt lat="44.34330940246582" lon="11.445887088775635">
        <ele>509</ele>
        <time>2005-03-13T09:34:15Z</time>
      </trkpt>
      <trkpt lat="44.343373775482178" lon="11.445543766021729">
        <ele>512</ele>
        <time>2005-03-13T09:34:27Z</time>
      </trkpt>
      <trkpt lat="44.343395233154297" lon="11.445457935333252">
        <ele>513</ele>
        <time>2005-03-13T09:34:31Z</time>
      </trkpt>
      <trkpt lat="44.343416690826416" lon="11.445221900939941">
        <ele>516</ele>
        <time>2005-03-13T09:34:39Z</time>
      </trkpt>
      <trkpt lat="44.343202114105225" lon="11.444685459136963">
        <ele>519</ele>
        <time>2005-03-13T09:34:59Z</time>
      </trkpt>
      <trkpt lat="44.342966079711914" lon="11.444599628448486">
        <ele>523</ele>
        <time>2005-03-13T09:35:09Z</time>
      </trkpt>
      <trkpt lat="44.34257984161377" lon="11.444342136383057">
        <ele>525</ele>
        <time>2005-03-13T09:35:32Z</time>
      </trkpt>
      <trkpt lat="44.342043399810791" lon="11.443955898284912">
        <ele>522</ele>
        <time>2005-03-13T09:35:52Z</time>
      </trkpt>
      <trkpt lat="44.341979026794434" lon="11.443912982940674">
        <ele>521</ele>
        <time>2005-03-13T09:35:54Z</time>
      </trkpt>
      <trkpt lat="44.3418288230896" lon="11.443483829498291">
        <ele>520</ele>
        <time>2005-03-13T09:36:08Z</time>
      </trkpt>
      <trkpt lat="44.341657161712646" lon="11.443355083465576">
        <ele>517</ele>
        <time>2005-03-13T09:36:17Z</time>
      </trkpt>
      <trkpt lat="44.341592788696289" lon="11.443290710449219">
        <ele>516</ele>
        <time>2005-03-13T09:36:19Z</time>
      </trkpt>
      <trkpt lat="44.341507041826844" lon="11.443183422088623">
        <ele>515</ele>
        <time>2005-03-13T09:36:21Z</time>
      </trkpt>
      <trkpt lat="44.341421127319336" lon="11.443054676055908">
        <ele>514</ele>
        <time>2005-03-13T09:36:23Z</time>
      </trkpt>
      <trkpt lat="44.34131383895874" lon="11.442925930023193">
        <ele>514</ele>
        <time>2005-03-13T09:36:25Z</time>
      </trkpt>
      <trkpt lat="44.341013431549072" lon="11.442947387695313">
        <ele>512</ele>
        <time>2005-03-13T09:36:30Z</time>
      </trkpt>
      <trkpt lat="44.340391159057617" lon="11.442861640825868">
        <ele>513</ele>
        <time>2005-03-13T09:36:42Z</time>
      </trkpt>
      <trkpt lat="44.340133666992188" lon="11.44251823425293">
        <ele>515</ele>
        <time>2005-03-13T09:36:57Z</time>
      </trkpt>
      <trkpt lat="44.339983463287354" lon="11.442260658368468">
        <ele>518</ele>
        <time>2005-03-13T09:37:09Z</time>
      </trkpt>
      <trkpt lat="44.33983325958252" lon="11.442153537645936">
        <ele>522</ele>
        <time>2005-03-13T09:37:19Z</time>
      </trkpt>
      <trkpt lat="44.339511394500732" lon="11.442089080810547">
        <ele>525</ele>
        <time>2005-03-13T09:37:39Z</time>
      </trkpt>
      <trkpt lat="44.339210987091064" lon="11.441917419433594">
        <ele>526</ele>
        <time>2005-03-13T09:38:00Z</time>
      </trkpt>
      <trkpt lat="44.338889122009277" lon="11.441466808319092">
        <ele>525</ele>
        <time>2005-03-13T09:38:15Z</time>
      </trkpt>
      <trkpt lat="44.338674461469054" lon="11.441144859418273">
        <ele>525</ele>
        <time>2005-03-13T09:38:28Z</time>
      </trkpt>
      <trkpt lat="44.338459968566895" lon="11.440823078155518">
        <ele>528</ele>
        <time>2005-03-13T09:38:44Z</time>
      </trkpt>
      <trkpt lat="44.338288307189941" lon="11.440372467041016">
        <ele>529</ele>
        <time>2005-03-13T09:39:04Z</time>
      </trkpt>
      <trkpt lat="44.338159561157227" lon="11.440029060468078">
        <ele>529</ele>
        <time>2005-03-13T09:39:18Z</time>
      </trkpt>
      <trkpt lat="44.33785923756659" lon="11.439492702484131">
        <ele>527</ele>
        <time>2005-03-13T09:39:37Z</time>
      </trkpt>
      <trkpt lat="44.337408458814025" lon="11.438570022583008">
        <ele>526</ele>
        <time>2005-03-13T09:40:05Z</time>
      </trkpt>
      <trkpt lat="44.337258338928223" lon="11.437690341845155">
        <ele>525</ele>
        <time>2005-03-13T09:40:26Z</time>
      </trkpt>
      <trkpt lat="44.337258338928223" lon="11.437089359387755">
        <ele>528</ele>
        <time>2005-03-13T09:40:42Z</time>
      </trkpt>
      <trkpt lat="44.337258338928223" lon="11.436939239501953">
        <ele>529</ele>
        <time>2005-03-13T09:40:57Z</time>
      </trkpt>
      <trkpt lat="44.337236881256104" lon="11.436810493469238">
        <ele>529</ele>
        <time>2005-03-13T09:42:23Z</time>
      </trkpt>
      <trkpt lat="44.337172508239746" lon="11.436767578125">
        <ele>532</ele>
        <time>2005-03-13T09:47:07Z</time>
      </trkpt>
      <trkpt lat="44.336957931518555" lon="11.436746120452881">
        <ele>536</ele>
        <time>2005-03-13T09:47:21Z</time>
      </trkpt>
      <trkpt lat="44.33682918548584" lon="11.436746120452881">
        <ele>538</ele>
        <time>2005-03-13T09:47:31Z</time>
      </trkpt>
      <trkpt lat="44.336764812469482" lon="11.436724662780762">
        <ele>539</ele>
        <time>2005-03-13T09:47:34Z</time>
      </trkpt>
      <trkpt lat="44.336721897125244" lon="11.436681663617492">
        <ele>540</ele>
        <time>2005-03-13T09:47:39Z</time>
      </trkpt>
      <trkpt lat="44.336657524108887" lon="11.436660289764404">
        <ele>541</ele>
        <time>2005-03-13T09:47:56Z</time>
      </trkpt>
      <trkpt lat="44.336528778076172" lon="11.436595916748047">
        <ele>544</ele>
        <time>2005-03-13T09:48:13Z</time>
      </trkpt>
      <trkpt lat="44.336421489715576" lon="11.436574459075928">
        <ele>546</ele>
        <time>2005-03-13T09:48:30Z</time>
      </trkpt>
      <trkpt lat="44.336378574371338" lon="11.436574459075928">
        <ele>547</ele>
        <time>2005-03-13T09:48:37Z</time>
      </trkpt>
      <trkpt lat="44.3363356590271" lon="11.436574459075928">
        <ele>548</ele>
        <time>2005-03-13T09:48:41Z</time>
      </trkpt>
      <trkpt lat="44.336228370666504" lon="11.436553001403809">
        <ele>549</ele>
        <time>2005-03-13T09:48:54Z</time>
      </trkpt>
      <trkpt lat="44.33607816696167" lon="11.436424339190125">
        <ele>549</ele>
        <time>2005-03-13T09:49:12Z</time>
      </trkpt>
      <trkpt lat="44.336013793945313" lon="11.436338424682617">
        <ele>550</ele>
        <time>2005-03-13T09:49:26Z</time>
      </trkpt>
      <trkpt lat="44.335949420928955" lon="11.435995101928711">
        <ele>553</ele>
        <time>2005-03-13T09:49:39Z</time>
      </trkpt>
      <trkpt lat="44.335949420928955" lon="11.435887813568115">
        <ele>554</ele>
        <time>2005-03-13T09:49:43Z</time>
      </trkpt>
      <trkpt lat="44.335906505584717" lon="11.435673236846924">
        <ele>558</ele>
        <time>2005-03-13T09:49:52Z</time>
      </trkpt>
      <trkpt lat="44.335799217224121" lon="11.435351371765137">
        <ele>561</ele>
        <time>2005-03-13T09:50:12Z</time>
      </trkpt>
      <trkpt lat="44.335691928863525" lon="11.435007965192199">
        <ele>564</ele>
        <time>2005-03-13T09:50:29Z</time>
      </trkpt>
      <trkpt lat="44.335649013519287" lon="11.434814929962158">
        <ele>567</ele>
        <time>2005-03-13T09:50:39Z</time>
      </trkpt>
      <trkpt lat="44.33558464050293" lon="11.434600437059999">
        <ele>566</ele>
        <time>2005-03-13T09:55:51Z</time>
      </trkpt>
      <trkpt lat="44.335649013519287" lon="11.434493064880371">
        <ele>565</ele>
        <time>2005-03-13T09:55:57Z</time>
      </trkpt>
      <trkpt lat="44.335927963256836" lon="11.433978080749512">
        <ele>564</ele>
        <time>2005-03-13T09:56:13Z</time>
      </trkpt>
      <trkpt lat="44.33629265986383" lon="11.433677673339844">
        <ele>563</ele>
        <time>2005-03-13T09:56:25Z</time>
      </trkpt>
      <trkpt lat="44.336743438616395" lon="11.433291435241699">
        <ele>564</ele>
        <time>2005-03-13T09:56:34Z</time>
      </trkpt>
      <trkpt lat="44.336915016174316" lon="11.432862281799316">
        <ele>563</ele>
        <time>2005-03-13T09:56:43Z</time>
      </trkpt>
      <trkpt lat="44.337022304534912" lon="11.432240009307861">
        <ele>564</ele>
        <time>2005-03-13T09:56:55Z</time>
      </trkpt>
      <trkpt lat="44.337193965911865" lon="11.431746482849121">
        <ele>563</ele>
        <time>2005-03-13T09:57:14Z</time>
      </trkpt>
      <trkpt lat="44.337301338091493" lon="11.431639194488525">
        <ele>562</ele>
        <time>2005-03-13T09:57:18Z</time>
      </trkpt>
      <trkpt lat="44.337537288665771" lon="11.431596279144287">
        <ele>560</ele>
        <time>2005-03-13T09:57:22Z</time>
      </trkpt>
      <trkpt lat="44.337902069091797" lon="11.431424617767334">
        <ele>553</ele>
        <time>2005-03-13T09:57:28Z</time>
      </trkpt>
      <trkpt lat="44.33807373046875" lon="11.431102836504579">
        <ele>550</ele>
        <time>2005-03-13T09:57:32Z</time>
      </trkpt>
      <trkpt lat="44.338138103485107" lon="11.431081295013428">
        <ele>549</ele>
        <time>2005-03-13T09:57:33Z</time>
      </trkpt>
      <trkpt lat="44.338524341583252" lon="11.430931091308594">
        <ele>545</ele>
        <time>2005-03-13T09:57:39Z</time>
      </trkpt>
      <trkpt lat="44.338696002960205" lon="11.430802261456847">
        <ele>543</ele>
        <time>2005-03-13T09:57:43Z</time>
      </trkpt>
      <trkpt lat="44.338717460632324" lon="11.430759429931641">
        <ele>543</ele>
        <time>2005-03-13T09:57:44Z</time>
      </trkpt>
      <trkpt lat="44.338846206665039" lon="11.430609226226807">
        <ele>543</ele>
        <time>2005-03-13T09:57:47Z</time>
      </trkpt>
      <trkpt lat="44.338889122009277" lon="11.430501937866211">
        <ele>543</ele>
        <time>2005-03-13T09:57:49Z</time>
      </trkpt>
      <trkpt lat="44.338975036516786" lon="11.4302659034729">
        <ele>543</ele>
        <time>2005-03-13T09:57:53Z</time>
      </trkpt>
      <trkpt lat="44.339017868041992" lon="11.430180072784424">
        <ele>542</ele>
        <time>2005-03-13T09:57:55Z</time>
      </trkpt>
      <trkpt lat="44.339382564648986" lon="11.429750919342041">
        <ele>538</ele>
        <time>2005-03-13T09:58:04Z</time>
      </trkpt>
      <trkpt lat="44.339854717254639" lon="11.429257392883301">
        <ele>536</ele>
        <time>2005-03-13T09:58:14Z</time>
      </trkpt>
      <trkpt lat="44.339962005615234" lon="11.429042816162109">
        <ele>537</ele>
        <time>2005-03-13T09:58:18Z</time>
      </trkpt>
      <trkpt lat="44.340026378631592" lon="11.428828239440918">
        <ele>536</ele>
        <time>2005-03-13T09:59:05Z</time>
      </trkpt>
      <trkpt lat="44.340176582336426" lon="11.428678035736084">
        <ele>534</ele>
        <time>2005-03-13T09:59:21Z</time>
      </trkpt>
      <trkpt lat="44.34032678604126" lon="11.428635120391846">
        <ele>532</ele>
        <time>2005-03-13T09:59:31Z</time>
      </trkpt>
      <trkpt lat="44.340434074401855" lon="11.428613662719727">
        <ele>531</ele>
        <time>2005-03-13T09:59:37Z</time>
      </trkpt>
      <trkpt lat="44.340498363599181" lon="11.42852783203125">
        <ele>530</ele>
        <time>2005-03-13T09:59:41Z</time>
      </trkpt>
      <trkpt lat="44.340605735778809" lon="11.428442001342773">
        <ele>528</ele>
        <time>2005-03-13T09:59:44Z</time>
      </trkpt>
      <trkpt lat="44.340777397155762" lon="11.428356170654297">
        <ele>525</ele>
        <time>2005-03-13T09:59:47Z</time>
      </trkpt>
      <trkpt lat="44.340906059369445" lon="11.42831333912909">
        <ele>524</ele>
        <time>2005-03-13T09:59:49Z</time>
      </trkpt>
      <trkpt lat="44.341099262237549" lon="11.428291797637939">
        <ele>521</ele>
        <time>2005-03-13T09:59:52Z</time>
      </trkpt>
      <trkpt lat="44.34131383895874" lon="11.428141593933105">
        <ele>516</ele>
        <time>2005-03-13T09:59:56Z</time>
      </trkpt>
      <trkpt lat="44.34135683812201" lon="11.428098678588867">
        <ele>515</ele>
        <time>2005-03-13T09:59:57Z</time>
      </trkpt>
      <trkpt lat="44.341507041826844" lon="11.427841186523438">
        <ele>510</ele>
        <time>2005-03-13T10:00:01Z</time>
      </trkpt>
      <trkpt lat="44.341549873352051" lon="11.42777681350708">
        <ele>509</ele>
        <time>2005-03-13T10:00:02Z</time>
      </trkpt>
      <trkpt lat="44.341678619384766" lon="11.427476406097412">
        <ele>504</ele>
        <time>2005-03-13T10:00:06Z</time>
      </trkpt>
      <trkpt lat="44.341635704040527" lon="11.427154541015625">
        <ele>501</ele>
        <time>2005-03-13T10:00:09Z</time>
      </trkpt>
      <trkpt lat="44.341678619384766" lon="11.426510810852051">
        <ele>499</ele>
        <time>2005-03-13T10:00:15Z</time>
      </trkpt>
      <trkpt lat="44.341721534729004" lon="11.426403522491455">
        <ele>497</ele>
        <time>2005-03-13T10:00:16Z</time>
      </trkpt>
      <trkpt lat="44.3418288230896" lon="11.426167488098145">
        <ele>494</ele>
        <time>2005-03-13T10:00:19Z</time>
      </trkpt>
      <trkpt lat="44.34180736541748" lon="11.425802707672119">
        <ele>490</ele>
        <time>2005-03-13T10:00:23Z</time>
      </trkpt>
      <trkpt lat="44.341785907745361" lon="11.425695419311523">
        <ele>488</ele>
        <time>2005-03-13T10:00:24Z</time>
      </trkpt>
      <trkpt lat="44.341657161712646" lon="11.425459384918213">
        <ele>483</ele>
        <time>2005-03-13T10:00:27Z</time>
      </trkpt>
      <trkpt lat="44.341507041826844" lon="11.425158977508545">
        <ele>480</ele>
        <time>2005-03-13T10:00:32Z</time>
      </trkpt>
      <trkpt lat="44.341485500335693" lon="11.424965858459473">
        <ele>479</ele>
        <time>2005-03-13T10:00:37Z</time>
      </trkpt>
      <trkpt lat="44.341507041826844" lon="11.424837112426758">
        <ele>477</ele>
        <time>2005-03-13T10:00:49Z</time>
      </trkpt>
      <trkpt lat="44.341507041826844" lon="11.424837112426758">
        <ele>477</ele>
        <time>2005-03-13T10:01:16Z</time>
      </trkpt>
      <trkpt lat="44.341507041826844" lon="11.42479419708252">
        <ele>478</ele>
        <time>2005-03-13T10:04:52Z</time>
      </trkpt>
      <trkpt lat="44.341549873352051" lon="11.424837112426758">
        <ele>478</ele>
        <time>2005-03-13T10:05:08Z</time>
      </trkpt>
      <trkpt lat="44.341700077056885" lon="11.425116062164307">
        <ele>477</ele>
        <time>2005-03-13T10:05:19Z</time>
      </trkpt>
      <trkpt lat="44.341721534729004" lon="11.425158977508545">
        <ele>476</ele>
        <time>2005-03-13T10:05:20Z</time>
      </trkpt>
      <trkpt lat="44.34202185831964" lon="11.425437927246094">
        <ele>472</ele>
        <time>2005-03-13T10:05:27Z</time>
      </trkpt>
      <trkpt lat="44.342215061187744" lon="11.425545215606689">
        <ele>468</ele>
        <time>2005-03-13T10:05:30Z</time>
      </trkpt>
      <trkpt lat="44.342794418334961" lon="11.425695419311523">
        <ele>463</ele>
        <time>2005-03-13T10:05:33Z</time>
      </trkpt>
      <trkpt lat="44.343266487121582" lon="11.425566673278809">
        <ele>459</ele>
        <time>2005-03-13T10:05:37Z</time>
      </trkpt>
      <trkpt lat="44.343459606170654" lon="11.425459384918213">
        <ele>455</ele>
        <time>2005-03-13T10:05:39Z</time>
      </trkpt>
      <trkpt lat="44.343674182891846" lon="11.425395011901855">
        <ele>451</ele>
        <time>2005-03-13T10:05:41Z</time>
      </trkpt>
      <trkpt lat="44.343888759613037" lon="11.425352096557617">
        <ele>446</ele>
        <time>2005-03-13T10:05:43Z</time>
      </trkpt>
      <trkpt lat="44.343995964154601" lon="11.425330638885498">
        <ele>443</ele>
        <time>2005-03-13T10:05:44Z</time>
      </trkpt>
      <trkpt lat="44.344210624694824" lon="11.42528772354126">
        <ele>438</ele>
        <time>2005-03-13T10:05:46Z</time>
      </trkpt>
      <trkpt lat="44.344425201416016" lon="11.425223434343934">
        <ele>434</ele>
        <time>2005-03-13T10:05:48Z</time>
      </trkpt>
      <trkpt lat="44.344768524169922" lon="11.425008773803711">
        <ele>427</ele>
        <time>2005-03-13T10:05:51Z</time>
      </trkpt>
      <trkpt lat="44.344940185546875" lon="11.4247727394104">
        <ele>422</ele>
        <time>2005-03-13T10:05:53Z</time>
      </trkpt>
      <trkpt lat="44.345154762268066" lon="11.424364959821105">
        <ele>411</ele>
        <time>2005-03-13T10:05:57Z</time>
      </trkpt>
      <trkpt lat="44.345197677612305" lon="11.424300670623779">
        <ele>409</ele>
        <time>2005-03-13T10:05:58Z</time>
      </trkpt>
      <trkpt lat="44.345262134447694" lon="11.423914432525635">
        <ele>405</ele>
        <time>2005-03-13T10:06:03Z</time>
      </trkpt>
      <trkpt lat="44.345262134447694" lon="11.423828601837158">
        <ele>404</ele>
        <time>2005-03-13T10:06:04Z</time>
      </trkpt>
      <trkpt lat="44.3453049659729" lon="11.423506736755371">
        <ele>401</ele>
        <time>2005-03-13T10:06:08Z</time>
      </trkpt>
      <trkpt lat="44.345347881317139" lon="11.423420906066895">
        <ele>401</ele>
        <time>2005-03-13T10:06:09Z</time>
      </trkpt>
      <trkpt lat="44.345498085021973" lon="11.423206329345703">
        <ele>399</ele>
        <time>2005-03-13T10:06:12Z</time>
      </trkpt>
      <trkpt lat="44.345605373382568" lon="11.423077583312988">
        <ele>397</ele>
        <time>2005-03-13T10:06:14Z</time>
      </trkpt>
      <trkpt lat="44.345841407775879" lon="11.422820091247559">
        <ele>396</ele>
        <time>2005-03-13T10:06:18Z</time>
      </trkpt>
      <trkpt lat="44.345948696136475" lon="11.422712802886963">
        <ele>397</ele>
        <time>2005-03-13T10:06:20Z</time>
      </trkpt>
      <trkpt lat="44.346377765759826" lon="11.422519683837891">
        <ele>396</ele>
        <time>2005-03-13T10:06:28Z</time>
      </trkpt>
      <trkpt lat="44.34657096862793" lon="11.422154903411865">
        <ele>397</ele>
        <time>2005-03-13T10:06:38Z</time>
      </trkpt>
      <trkpt lat="44.346914291381836" lon="11.422111988067627">
        <ele>398</ele>
        <time>2005-03-13T10:09:59Z</time>
      </trkpt>
      <trkpt lat="44.3473219871521" lon="11.422090530395508">
        <ele>400</ele>
        <time>2005-03-13T10:10:08Z</time>
      </trkpt>
      <trkpt lat="44.347751140594482" lon="11.42204761505127">
        <ele>402</ele>
        <time>2005-03-13T10:10:16Z</time>
      </trkpt>
      <trkpt lat="44.347901260480285" lon="11.421940326690674">
        <ele>403</ele>
        <time>2005-03-13T10:10:20Z</time>
      </trkpt>
      <trkpt lat="44.348223209381104" lon="11.421682834625244">
        <ele>406</ele>
        <time>2005-03-13T10:10:36Z</time>
      </trkpt>
      <trkpt lat="44.34835203923285" lon="11.42153263092041">
        <ele>409</ele>
        <time>2005-03-13T10:10:46Z</time>
      </trkpt>
      <trkpt lat="44.348459159955382" lon="11.421446800231934">
        <ele>411</ele>
        <time>2005-03-13T10:10:53Z</time>
      </trkpt>
      <trkpt lat="44.348587989807129" lon="11.42131813801825">
        <ele>414</ele>
        <time>2005-03-13T10:11:03Z</time>
      </trkpt>
      <trkpt lat="44.348716735839844" lon="11.421103477478027">
        <ele>417</ele>
        <time>2005-03-13T10:11:15Z</time>
      </trkpt>
      <trkpt lat="44.34880256652832" lon="11.420953273773193">
        <ele>417</ele>
        <time>2005-03-13T10:14:25Z</time>
      </trkpt>
      <trkpt lat="44.349124431610107" lon="11.42078161239624">
        <ele>414</ele>
        <time>2005-03-13T10:14:38Z</time>
      </trkpt>
      <trkpt lat="44.349424839019775" lon="11.420695781707764">
        <ele>413</ele>
        <time>2005-03-13T10:14:44Z</time>
      </trkpt>
      <trkpt lat="44.349832534790039" lon="11.420245170593262">
        <ele>408</ele>
        <time>2005-03-13T10:14:51Z</time>
      </trkpt>
      <trkpt lat="44.349875533953309" lon="11.420180797576904">
        <ele>408</ele>
        <time>2005-03-13T10:14:52Z</time>
      </trkpt>
      <trkpt lat="44.35004711151123" lon="11.419944763183594">
        <ele>404</ele>
        <time>2005-03-13T10:14:55Z</time>
      </trkpt>
      <trkpt lat="44.350175941362977" lon="11.419773101806641">
        <ele>401</ele>
        <time>2005-03-13T10:14:57Z</time>
      </trkpt>
      <trkpt lat="44.350326061248779" lon="11.419558525085449">
        <ele>398</ele>
        <time>2005-03-13T10:15:00Z</time>
      </trkpt>
      <trkpt lat="44.350390434265137" lon="11.419515609741211">
        <ele>396</ele>
        <time>2005-03-13T10:15:04Z</time>
      </trkpt>
      <trkpt lat="44.350433265790343" lon="11.419515609741211">
        <ele>396</ele>
        <time>2005-03-13T10:15:18Z</time>
      </trkpt>
      <trkpt lat="44.350433265790343" lon="11.419515609741211">
        <ele>396</ele>
        <time>2005-03-13T10:15:20Z</time>
      </trkpt>
      <trkpt lat="44.350519180297852" lon="11.419408321380615">
        <ele>396</ele>
        <time>2005-03-13T10:15:32Z</time>
      </trkpt>
      <trkpt lat="44.350669384002686" lon="11.419172286987305">
        <ele>396</ele>
        <time>2005-03-13T10:15:43Z</time>
      </trkpt>
      <trkpt lat="44.3507981300354" lon="11.418979167938232">
        <ele>392</ele>
        <time>2005-03-13T10:15:52Z</time>
      </trkpt>
      <trkpt lat="44.35081958770752" lon="11.418957710266113">
        <ele>392</ele>
        <time>2005-03-13T10:15:54Z</time>
      </trkpt>
      <trkpt lat="44.35081958770752" lon="11.418957710266113">
        <ele>392</ele>
        <time>2005-03-13T10:15:56Z</time>
      </trkpt>
      <trkpt lat="44.350862503051758" lon="11.418785965070128">
        <ele>389</ele>
        <time>2005-03-13T10:16:01Z</time>
      </trkpt>
      <trkpt lat="44.350883960723877" lon="11.418721675872803">
        <ele>388</ele>
        <time>2005-03-13T10:16:02Z</time>
      </trkpt>
      <trkpt lat="44.351098537445068" lon="11.418571472167969">
        <ele>387</ele>
        <time>2005-03-13T10:16:11Z</time>
      </trkpt>
      <trkpt lat="44.351270198822021" lon="11.418592929840088">
        <ele>385</ele>
        <time>2005-03-13T10:16:18Z</time>
      </trkpt>
      <trkpt lat="44.351377487182617" lon="11.418678760528564">
        <ele>384</ele>
        <time>2005-03-13T10:16:24Z</time>
      </trkpt>
      <trkpt lat="44.351420402526855" lon="11.418678760528564">
        <ele>384</ele>
        <time>2005-03-13T10:16:41Z</time>
      </trkpt>
      <trkpt lat="44.351463317871094" lon="11.418635761365294">
        <ele>383</ele>
        <time>2005-03-13T10:16:48Z</time>
      </trkpt>
      <trkpt lat="44.351484775543213" lon="11.418592929840088">
        <ele>382</ele>
        <time>2005-03-13T10:16:50Z</time>
      </trkpt>
      <trkpt lat="44.351527690887451" lon="11.418571472167969">
        <ele>381</ele>
        <time>2005-03-13T10:16:52Z</time>
      </trkpt>
      <trkpt lat="44.351570606231689" lon="11.418528640642762">
        <ele>380</ele>
        <time>2005-03-13T10:16:55Z</time>
      </trkpt>
      <trkpt lat="44.351592063903809" lon="11.418442726135254">
        <ele>377</ele>
        <time>2005-03-13T10:17:00Z</time>
      </trkpt>
      <trkpt lat="44.351634979248047" lon="11.418378436937928">
        <ele>375</ele>
        <time>2005-03-13T10:17:05Z</time>
      </trkpt>
      <trkpt lat="44.351656436920166" lon="11.418378436937928">
        <ele>370</ele>
        <time>2005-03-13T10:17:15Z</time>
      </trkpt>
      <trkpt lat="44.351656436920166" lon="11.418378436937928">
        <ele>375</ele>
        <time>2005-03-13T10:17:16Z</time>
      </trkpt>
      <trkpt lat="44.351656436920166" lon="11.418378436937928">
        <ele>374</ele>
        <time>2005-03-13T10:17:43Z</time>
      </trkpt>
      <trkpt lat="44.351656436920166" lon="11.418378436937928">
        <ele>374</ele>
        <time>2005-03-13T10:17:57Z</time>
      </trkpt>
      <trkpt lat="44.351656436920166" lon="11.418356895446777">
        <ele>374</ele>
        <time>2005-03-13T10:18:22Z</time>
      </trkpt>
      <trkpt lat="44.351677894592285" lon="11.418335437774658">
        <ele>374</ele>
        <time>2005-03-13T10:18:25Z</time>
      </trkpt>
      <trkpt lat="44.351742267608643" lon="11.418228065595031">
        <ele>369</ele>
        <time>2005-03-13T10:18:30Z</time>
      </trkpt>
      <trkpt lat="44.351806640625" lon="11.418185234069824">
        <ele>366</ele>
        <time>2005-03-13T10:18:35Z</time>
      </trkpt>
      <trkpt lat="44.351956760510802" lon="11.418120861053467">
        <ele>363</ele>
        <time>2005-03-13T10:18:46Z</time>
      </trkpt>
      <trkpt lat="44.352021217346191" lon="11.418056488037109">
        <ele>360</ele>
        <time>2005-03-13T10:18:52Z</time>
      </trkpt>
      <trkpt lat="44.352128505706787" lon="11.417992115020752">
        <ele>357</ele>
        <time>2005-03-13T10:18:58Z</time>
      </trkpt>
      <trkpt lat="44.352171421051025" lon="11.417970741167665">
        <ele>356</ele>
        <time>2005-03-13T10:19:01Z</time>
      </trkpt>
      <trkpt lat="44.352235794067383" lon="11.417927658185363">
        <ele>355</ele>
        <time>2005-03-13T10:19:04Z</time>
      </trkpt>
      <trkpt lat="44.352235794067383" lon="11.417863368988037">
        <ele>352</ele>
        <time>2005-03-13T10:19:08Z</time>
      </trkpt>
      <trkpt lat="44.352171421051025" lon="11.417777538299561">
        <ele>349</ele>
        <time>2005-03-13T10:19:14Z</time>
      </trkpt>
      <trkpt lat="44.352085590362549" lon="11.417691707611084">
        <ele>347</ele>
        <time>2005-03-13T10:19:22Z</time>
      </trkpt>
      <trkpt lat="44.35206413269043" lon="11.417584419250488">
        <ele>342</ele>
        <time>2005-03-13T10:19:27Z</time>
      </trkpt>
      <trkpt lat="44.352106964215636" lon="11.417562961578369">
        <ele>342</ele>
        <time>2005-03-13T10:19:29Z</time>
      </trkpt>
      <trkpt lat="44.352128505706787" lon="11.417562961578369">
        <ele>341</ele>
        <time>2005-03-13T10:19:30Z</time>
      </trkpt>
      <trkpt lat="44.352171421051025" lon="11.41754150390625">
        <ele>339</ele>
        <time>2005-03-13T10:19:35Z</time>
      </trkpt>
      <trkpt lat="44.352214336395264" lon="11.417519962415099">
        <ele>337</ele>
        <time>2005-03-13T10:19:46Z</time>
      </trkpt>
      <trkpt lat="44.352257335558534" lon="11.417498588562012">
        <ele>335</ele>
        <time>2005-03-13T10:19:49Z</time>
      </trkpt>
      <trkpt lat="44.35230016708374" lon="11.417519962415099">
        <ele>333</ele>
        <time>2005-03-13T10:19:52Z</time>
      </trkpt>
      <trkpt lat="44.352321624755859" lon="11.41754150390625">
        <ele>331</ele>
        <time>2005-03-13T10:20:07Z</time>
      </trkpt>
      <trkpt lat="44.352343082427979" lon="11.417584419250488">
        <ele>331</ele>
        <time>2005-03-13T10:20:17Z</time>
      </trkpt>
      <trkpt lat="44.352385997772217" lon="11.417605876922607">
        <ele>330</ele>
        <time>2005-03-13T10:20:30Z</time>
      </trkpt>
      <trkpt lat="44.352471828460693" lon="11.417648792266846">
        <ele>330</ele>
        <time>2005-03-13T10:20:46Z</time>
      </trkpt>
      <trkpt lat="44.352493286132812" lon="11.417648792266846">
        <ele>328</ele>
        <time>2005-03-13T10:21:00Z</time>
      </trkpt>
      <trkpt lat="44.352536201477051" lon="11.417670166119933">
        <ele>325</ele>
        <time>2005-03-13T10:21:05Z</time>
      </trkpt>
      <trkpt lat="44.352579116821289" lon="11.417670166119933">
        <ele>323</ele>
        <time>2005-03-13T10:21:07Z</time>
      </trkpt>
      <trkpt lat="44.352643489837646" lon="11.417691707611084">
        <ele>321</ele>
        <time>2005-03-13T10:21:11Z</time>
      </trkpt>
      <trkpt lat="44.352686405181885" lon="11.417670166119933">
        <ele>317</ele>
        <time>2005-03-13T10:21:16Z</time>
      </trkpt>
      <trkpt lat="44.352729320526123" lon="11.417670166119933">
        <ele>314</ele>
        <time>2005-03-13T10:21:24Z</time>
      </trkpt>
      <trkpt lat="44.352750778198242" lon="11.417648792266846">
        <ele>314</ele>
        <time>2005-03-13T10:21:25Z</time>
      </trkpt>
      <trkpt lat="44.35279369354248" lon="11.417605876922607">
        <ele>310</ele>
        <time>2005-03-13T10:21:31Z</time>
      </trkpt>
      <trkpt lat="44.352858066558838" lon="11.417605876922607">
        <ele>309</ele>
        <time>2005-03-13T10:21:51Z</time>
      </trkpt>
      <trkpt lat="44.352900981903076" lon="11.417605876922607">
        <ele>305</ele>
        <time>2005-03-13T10:22:03Z</time>
      </trkpt>
      <trkpt lat="44.352965438738465" lon="11.417584419250488">
        <ele>303</ele>
        <time>2005-03-13T10:22:20Z</time>
      </trkpt>
      <trkpt lat="44.353008270263672" lon="11.41754150390625">
        <ele>303</ele>
        <time>2005-03-13T10:22:35Z</time>
      </trkpt>
      <trkpt lat="44.353029727935791" lon="11.417519962415099">
        <ele>302</ele>
        <time>2005-03-13T10:22:47Z</time>
      </trkpt>
      <trkpt lat="44.353072559460998" lon="11.417477130889893">
        <ele>301</ele>
        <time>2005-03-13T10:22:59Z</time>
      </trkpt>
      <trkpt lat="44.353029727935791" lon="11.417477130889893">
        <ele>300</ele>
        <time>2005-03-13T10:23:15Z</time>
      </trkpt>
      <trkpt lat="44.353029727935791" lon="11.417455673217773">
        <ele>298</ele>
        <time>2005-03-13T10:23:18Z</time>
      </trkpt>
      <trkpt lat="44.353029727935791" lon="11.417412841692567">
        <ele>296</ele>
        <time>2005-03-13T10:23:38Z</time>
      </trkpt>
      <trkpt lat="44.353008270263672" lon="11.417434215545654">
        <ele>294</ele>
        <time>2005-03-13T10:23:43Z</time>
      </trkpt>
      <trkpt lat="44.352986812591553" lon="11.417391300201416">
        <ele>291</ele>
        <time>2005-03-13T10:23:52Z</time>
      </trkpt>
      <trkpt lat="44.352965438738465" lon="11.417348384857178">
        <ele>289</ele>
        <time>2005-03-13T10:23:56Z</time>
      </trkpt>
      <trkpt lat="44.352943897247314" lon="11.417305469512939">
        <ele>289</ele>
        <time>2005-03-13T10:24:00Z</time>
      </trkpt>
      <trkpt lat="44.352943897247314" lon="11.417241096496582">
        <ele>287</ele>
        <time>2005-03-13T10:24:04Z</time>
      </trkpt>
      <trkpt lat="44.352922439575195" lon="11.417155265808105">
        <ele>284</ele>
        <time>2005-03-13T10:24:24Z</time>
      </trkpt>
      <trkpt lat="44.352922439575195" lon="11.417133808135986">
        <ele>281</ele>
        <time>2005-03-13T10:24:28Z</time>
      </trkpt>
      <trkpt lat="44.352922439575195" lon="11.417069435119629">
        <ele>277</ele>
        <time>2005-03-13T10:24:37Z</time>
      </trkpt>
      <trkpt lat="44.352922439575195" lon="11.416983604431152">
        <ele>277</ele>
        <time>2005-03-13T10:24:49Z</time>
      </trkpt>
      <trkpt lat="44.352986812591553" lon="11.416983604431152">
        <ele>273</ele>
        <time>2005-03-13T10:25:06Z</time>
      </trkpt>
      <trkpt lat="44.352986812591553" lon="11.416897773742676">
        <ele>270</ele>
        <time>2005-03-13T10:25:23Z</time>
      </trkpt>
      <trkpt lat="44.352965438738465" lon="11.416833400726318">
        <ele>270</ele>
        <time>2005-03-13T10:25:50Z</time>
      </trkpt>
      <trkpt lat="44.352965438738465" lon="11.416811859235168">
        <ele>268</ele>
        <time>2005-03-13T10:26:23Z</time>
      </trkpt>
      <trkpt lat="44.352965438738465" lon="11.41679048538208">
        <ele>266</ele>
        <time>2005-03-13T10:26:27Z</time>
      </trkpt>
      <trkpt lat="44.353008270263672" lon="11.416769027709961">
        <ele>265</ele>
        <time>2005-03-13T10:26:37Z</time>
      </trkpt>
      <trkpt lat="44.353008270263672" lon="11.416747570037842">
        <ele>264</ele>
        <time>2005-03-13T10:26:39Z</time>
      </trkpt>
      <trkpt lat="44.353029727935791" lon="11.416704738512635">
        <ele>259</ele>
        <time>2005-03-13T10:26:43Z</time>
      </trkpt>
      <trkpt lat="44.35305118560791" lon="11.416640281677246">
        <ele>255</ele>
        <time>2005-03-13T10:26:46Z</time>
      </trkpt>
      <trkpt lat="44.35305118560791" lon="11.416618824005127">
        <ele>254</ele>
        <time>2005-03-13T10:26:58Z</time>
      </trkpt>
      <trkpt lat="44.35305118560791" lon="11.41653299331665">
        <ele>250</ele>
        <time>2005-03-13T10:27:19Z</time>
      </trkpt>
      <trkpt lat="44.353072559460998" lon="11.41653299331665">
        <ele>250</ele>
        <time>2005-03-13T10:27:21Z</time>
      </trkpt>
      <trkpt lat="44.353115558624268" lon="11.416490077972412">
        <ele>248</ele>
        <time>2005-03-13T10:27:44Z</time>
      </trkpt>
      <trkpt lat="44.353137016296387" lon="11.416490077972412">
        <ele>246</ele>
        <time>2005-03-13T10:27:57Z</time>
      </trkpt>
      <trkpt lat="44.353222763165832" lon="11.416468620300293">
        <ele>242</ele>
        <time>2005-03-13T10:28:03Z</time>
      </trkpt>
      <trkpt lat="44.353244304656982" lon="11.416447162628174">
        <ele>247</ele>
        <time>2005-03-13T10:29:09Z</time>
      </trkpt>
      <trkpt lat="44.353351593017578" lon="11.416575908660889">
        <ele>248</ele>
        <time>2005-03-13T10:29:27Z</time>
      </trkpt>
      <trkpt lat="44.353373134508729" lon="11.416575908660889">
        <ele>244</ele>
        <time>2005-03-13T10:29:40Z</time>
      </trkpt>
      <trkpt lat="44.353437423706055" lon="11.416597366333008">
        <ele>243</ele>
        <time>2005-03-13T10:29:52Z</time>
      </trkpt>
      <trkpt lat="44.353523338213563" lon="11.416618824005127">
        <ele>242</ele>
        <time>2005-03-13T10:30:06Z</time>
      </trkpt>
      <trkpt lat="44.35356616973877" lon="11.416640281677246">
        <ele>242</ele>
        <time>2005-03-13T10:30:29Z</time>
      </trkpt>
      <trkpt lat="44.353587627410889" lon="11.416618824005127">
        <ele>243</ele>
        <time>2005-03-13T10:31:07Z</time>
      </trkpt>
      <trkpt lat="44.353652000427246" lon="11.416618824005127">
        <ele>243</ele>
        <time>2005-03-13T10:31:29Z</time>
      </trkpt>
      <trkpt lat="44.353780662640929" lon="11.416618824005127">
        <ele>242</ele>
        <time>2005-03-13T10:33:56Z</time>
      </trkpt>
      <trkpt lat="44.353845119476318" lon="11.416704738512635">
        <ele>239</ele>
        <time>2005-03-13T10:34:07Z</time>
      </trkpt>
      <trkpt lat="44.353845119476318" lon="11.416704738512635">
        <ele>239</ele>
        <time>2005-03-13T10:34:08Z</time>
      </trkpt>
      <trkpt lat="44.353845119476318" lon="11.416704738512635">
        <ele>239</ele>
        <time>2005-03-13T10:34:09Z</time>
      </trkpt>
      <trkpt lat="44.353973865509033" lon="11.416726112365723">
        <ele>235</ele>
        <time>2005-03-13T10:34:23Z</time>
      </trkpt>
      <trkpt lat="44.35421752743423" lon="11.416540117934346">
        <ele>230</ele>
        <time>1989-12-31T00:00:00Z</time>
      </trkpt>
      <trkpt lat="44.354309141635895" lon="11.416479097679257">
        <ele>228</ele>
        <time>1989-12-31T00:00:00Z</time>
      </trkpt>
      <trkpt lat="44.354244181886315" lon="11.415739059448242">
        <ele>200</ele>
        <time>1989-12-31T00:00:00Z</time>
      </trkpt>
      <trkpt lat="44.353694915771484" lon="11.415410991758108">
        <ele>198</ele>
        <time>1989-12-31T00:00:00Z</time>
      </trkpt>
      <trkpt lat="44.352653464302421" lon="11.414116909727454">
        <ele>180</ele>
        <time>1989-12-31T00:00:00Z</time>
      </trkpt>
      <trkpt lat="44.352867119014263" lon="11.414022361859679">
        <ele>175</ele>
        <time>1989-12-31T00:00:00Z</time>
      </trkpt>
      <trkpt lat="44.353454606607556" lon="11.414304664358497">
        <ele>174</ele>
        <time>1989-12-31T00:00:00Z</time>
      </trkpt>
      <trkpt lat="44.353988617658615" lon="11.414565090090036">
        <ele>174</ele>
        <time>1989-12-31T00:00:00Z</time>
      </trkpt>
      <trkpt lat="44.354400588199496" lon="11.414539273828268">
        <ele>174</ele>
        <time>1989-12-31T00:00:00Z</time>
      </trkpt>
      <trkpt lat="44.35518647544086" lon="11.414481187239289">
        <ele>173</ele>
        <time>1989-12-31T00:00:00Z</time>
      </trkpt>
      <trkpt lat="44.356334712356329" lon="11.414037700742483">
        <ele>170</ele>
        <time>1989-12-31T00:00:00Z</time>
      </trkpt>
      <trkpt lat="44.356830585747957" lon="11.413786914199591">
        <ele>167</ele>
        <time>1989-12-31T00:00:00Z</time>
      </trkpt>
      <trkpt lat="44.357149600982666" lon="11.413850784301758">
        <ele>166</ele>
        <time>2005-03-13T11:35:45Z</time>
      </trkpt>
      <trkpt lat="44.357664585113525" lon="11.414237022399902">
        <ele>164</ele>
        <time>2005-03-13T11:35:53Z</time>
      </trkpt>
      <trkpt lat="44.358007907867432" lon="11.41453742980957">
        <ele>161</ele>
        <time>2005-03-13T11:35:58Z</time>
      </trkpt>
      <trkpt lat="44.358093738555908" lon="11.414601802825928">
        <ele>161</ele>
        <time>2005-03-13T11:35:59Z</time>
      </trkpt>
      <trkpt lat="44.358587265014648" lon="11.41505241394043">
        <ele>157</ele>
        <time>2005-03-13T11:36:06Z</time>
      </trkpt>
      <trkpt lat="44.359230995178223" lon="11.415610313415527">
        <ele>154</ele>
        <time>2005-03-13T11:36:14Z</time>
      </trkpt>
      <trkpt lat="44.359595775604248" lon="11.416211128234863">
        <ele>152</ele>
        <time>2005-03-13T11:36:20Z</time>
      </trkpt>
      <trkpt lat="44.359745979309082" lon="11.416704738512635">
        <ele>151</ele>
        <time>2005-03-13T11:36:25Z</time>
      </trkpt>
      <trkpt lat="44.360733032226563" lon="11.417734622955322">
        <ele>149</ele>
        <time>2005-03-13T11:36:42Z</time>
      </trkpt>
      <trkpt lat="44.362063407897949" lon="11.418507099151611">
        <ele>149</ele>
        <time>2005-03-13T11:37:03Z</time>
      </trkpt>
      <trkpt lat="44.362170696258545" lon="11.418507099151611">
        <ele>148</ele>
        <time>2005-03-13T11:37:05Z</time>
      </trkpt>
      <trkpt lat="44.363372325897217" lon="11.418228065595031">
        <ele>150</ele>
        <time>2005-03-13T11:37:28Z</time>
      </trkpt>
      <trkpt lat="44.364402294158936" lon="11.417992115020752">
        <ele>150</ele>
        <time>2005-03-13T11:37:47Z</time>
      </trkpt>
      <trkpt lat="44.365668296813965" lon="11.41779899597168">
        <ele>151</ele>
        <time>2005-03-13T11:38:12Z</time>
      </trkpt>
      <trkpt lat="44.366419315338135" lon="11.418077861890197">
        <ele>150</ele>
        <time>2005-03-13T11:38:24Z</time>
      </trkpt>
      <trkpt lat="44.36678409576416" lon="11.418721675872803">
        <ele>148</ele>
        <time>2005-03-13T11:38:32Z</time>
      </trkpt>
      <trkpt lat="44.367492198944092" lon="11.420588493347168">
        <ele>145</ele>
        <time>2005-03-13T11:38:53Z</time>
      </trkpt>
      <trkpt lat="44.367899894714355" lon="11.421489715576172">
        <ele>142</ele>
        <time>2005-03-13T11:39:02Z</time>
      </trkpt>
      <trkpt lat="44.367921436205506" lon="11.421618461608887">
        <ele>142</ele>
        <time>2005-03-13T11:39:03Z</time>
      </trkpt>
      <trkpt lat="44.367985725402832" lon="11.42198315821588">
        <ele>140</ele>
        <time>2005-03-13T11:39:06Z</time>
      </trkpt>
      <trkpt lat="44.368050098419189" lon="11.422927379608154">
        <ele>139</ele>
        <time>2005-03-13T11:39:14Z</time>
      </trkpt>
      <trkpt lat="44.368178760632873" lon="11.423313617706299">
        <ele>140</ele>
        <time>2005-03-13T11:39:18Z</time>
      </trkpt>
      <trkpt lat="44.369101524353027" lon="11.424643993377686">
        <ele>140</ele>
        <time>2005-03-13T11:39:38Z</time>
      </trkpt>
      <trkpt lat="44.369874000549316" lon="11.425738334655762">
        <ele>140</ele>
        <time>2005-03-13T11:39:56Z</time>
      </trkpt>
      <trkpt lat="44.37053918838501" lon="11.426596641540527">
        <ele>141</ele>
        <time>2005-03-13T11:40:13Z</time>
      </trkpt>
      <trkpt lat="44.371547698974609" lon="11.427197540178895">
        <ele>140</ele>
        <time>2005-03-13T11:40:29Z</time>
      </trkpt>
      <trkpt lat="44.372212886810303" lon="11.427476406097412">
        <ele>137</ele>
        <time>2005-03-13T11:40:36Z</time>
      </trkpt>
      <trkpt lat="44.372706413269043" lon="11.427626609802246">
        <ele>133</ele>
        <time>2005-03-13T11:40:41Z</time>
      </trkpt>
      <trkpt lat="44.372813701629639" lon="11.427648067474365">
        <ele>133</ele>
        <time>2005-03-13T11:40:42Z</time>
      </trkpt>
      <trkpt lat="44.372899532318115" lon="11.427669525146484">
        <ele>132</ele>
        <time>2005-03-13T11:40:43Z</time>
      </trkpt>
      <trkpt lat="44.373199939727783" lon="11.427605235949159">
        <ele>131</ele>
        <time>2005-03-13T11:40:46Z</time>
      </trkpt>
      <trkpt lat="44.374101161956787" lon="11.427133083343506">
        <ele>128</ele>
        <time>2005-03-13T11:40:56Z</time>
      </trkpt>
      <trkpt lat="44.375195503234863" lon="11.42674676142633">
        <ele>128</ele>
        <time>2005-03-13T11:41:08Z</time>
      </trkpt>
      <trkpt lat="44.376718997955322" lon="11.426446437835693">
        <ele>126</ele>
        <time>2005-03-13T11:41:25Z</time>
      </trkpt>
      <trkpt lat="44.377920627593994" lon="11.426596641540527">
        <ele>125</ele>
        <time>2005-03-13T11:41:39Z</time>
      </trkpt>
      <trkpt lat="44.379143714904785" lon="11.42702579498291">
        <ele>122</ele>
        <time>2005-03-13T11:41:54Z</time>
      </trkpt>
      <trkpt lat="44.380002021789551" lon="11.427626609802246">
        <ele>122</ele>
        <time>2005-03-13T11:42:06Z</time>
      </trkpt>
      <trkpt lat="44.380302429199219" lon="11.428077220916748">
        <ele>123</ele>
        <time>2005-03-13T11:42:12Z</time>
      </trkpt>
      <trkpt lat="44.380559921264648" lon="11.428763866424561">
        <ele>125</ele>
        <time>2005-03-13T11:42:21Z</time>
      </trkpt>
      <trkpt lat="44.381310939788818" lon="11.429965496063232">
        <ele>124</ele>
        <time>2005-03-13T11:42:37Z</time>
      </trkpt>
      <trkpt lat="44.382491111755371" lon="11.431167125701904">
        <ele>122</ele>
        <time>2005-03-13T11:42:55Z</time>
      </trkpt>
      <trkpt lat="44.382576858624816" lon="11.431231498718262">
        <ele>123</ele>
        <time>2005-03-13T11:42:56Z</time>
      </trkpt>
      <trkpt lat="44.383070468902588" lon="11.431639194488525">
        <ele>119</ele>
        <time>2005-03-13T11:43:02Z</time>
      </trkpt>
      <trkpt lat="44.383177841082215" lon="11.431725025177002">
        <ele>119</ele>
        <time>2005-03-13T11:43:03Z</time>
      </trkpt>
      <trkpt lat="44.383928775787354" lon="11.432347297668457">
        <ele>116</ele>
        <time>2005-03-13T11:43:12Z</time>
      </trkpt>
      <trkpt lat="44.384593963623047" lon="11.432626163586974">
        <ele>116</ele>
        <time>2005-03-13T11:43:20Z</time>
      </trkpt>
      <trkpt lat="44.38601016998291" lon="11.43251895904541">
        <ele>115</ele>
        <time>2005-03-13T11:43:37Z</time>
      </trkpt>
      <trkpt lat="44.387297630310059" lon="11.432325839996338">
        <ele>117</ele>
        <time>2005-03-13T11:43:54Z</time>
      </trkpt>
      <trkpt lat="44.388048565015197" lon="11.432733535766602">
        <ele>118</ele>
        <time>2005-03-13T11:44:07Z</time>
      </trkpt>
      <trkpt lat="44.388842582702637" lon="11.432797908782959">
        <ele>118</ele>
        <time>2005-03-13T11:44:20Z</time>
      </trkpt>
      <trkpt lat="44.389142990112305" lon="11.432712078094482">
        <ele>118</ele>
        <time>2005-03-13T11:44:25Z</time>
      </trkpt>
      <trkpt lat="44.389958381652832" lon="11.431789398193359">
        <ele>117</ele>
        <time>2005-03-13T11:44:41Z</time>
      </trkpt>
      <trkpt lat="44.390065670013428" lon="11.431617736816406">
        <ele>116</ele>
        <time>2005-03-13T11:44:43Z</time>
      </trkpt>
      <trkpt lat="44.390602111816406" lon="11.430459022521973">
        <ele>114</ele>
        <time>2005-03-13T11:44:54Z</time>
      </trkpt>
      <trkpt lat="44.390730941668153" lon="11.430115699768066">
        <ele>112</ele>
        <time>2005-03-13T11:44:57Z</time>
      </trkpt>
      <trkpt lat="44.391589164733887" lon="11.429085731506348">
        <ele>110</ele>
        <time>2005-03-13T11:45:09Z</time>
      </trkpt>
      <trkpt lat="44.391825199127197" lon="11.428892612457275">
        <ele>108</ele>
        <time>2005-03-13T11:45:12Z</time>
      </trkpt>
      <trkpt lat="44.392447471618652" lon="11.428463459014893">
        <ele>108</ele>
        <time>2005-03-13T11:45:20Z</time>
      </trkpt>
      <trkpt lat="44.393112659454346" lon="11.428506374359131">
        <ele>108</ele>
        <time>2005-03-13T11:45:28Z</time>
      </trkpt>
      <trkpt lat="44.393413066864014" lon="11.428742408752441">
        <ele>106</ele>
        <time>2005-03-13T11:45:32Z</time>
      </trkpt>
      <trkpt lat="44.394721984863281" lon="11.429793834686279">
        <ele>107</ele>
        <time>2005-03-13T11:45:51Z</time>
      </trkpt>
      <trkpt lat="44.395752036944032" lon="11.430330276489258">
        <ele>106</ele>
        <time>2005-03-13T11:46:06Z</time>
      </trkpt>
      <trkpt lat="44.397468566894531" lon="11.43052339553833">
        <ele>105</ele>
        <time>2005-03-13T11:46:29Z</time>
      </trkpt>
      <trkpt lat="44.398648738861084" lon="11.430716514587402">
        <ele>106</ele>
        <time>2005-03-13T11:46:46Z</time>
      </trkpt>
      <trkpt lat="44.399249637499452" lon="11.430802261456847">
        <ele>106</ele>
        <time>2005-03-13T11:46:55Z</time>
      </trkpt>
      <trkpt lat="44.40021506510675" lon="11.43024436198175">
        <ele>106</ele>
        <time>2005-03-13T11:47:12Z</time>
      </trkpt>
      <trkpt lat="44.4012451171875" lon="11.429300308227539">
        <ele>106</ele>
        <time>2005-03-13T11:47:30Z</time>
      </trkpt>
      <trkpt lat="44.402532577514648" lon="11.428463459014893">
        <ele>105</ele>
        <time>2005-03-13T11:47:50Z</time>
      </trkpt>
      <trkpt lat="44.403648376464844" lon="11.427927017211914">
        <ele>106</ele>
        <time>2005-03-13T11:48:04Z</time>
      </trkpt>
      <trkpt lat="44.405107498168945" lon="11.427197540178895">
        <ele>104</ele>
        <time>2005-03-13T11:48:22Z</time>
      </trkpt>
      <trkpt lat="44.405622482299805" lon="11.426403522491455">
        <ele>102</ele>
        <time>2005-03-13T11:48:30Z</time>
      </trkpt>
      <trkpt lat="44.40598726272583" lon="11.426188861951232">
        <ele>99</ele>
        <time>2005-03-13T11:48:34Z</time>
      </trkpt>
      <trkpt lat="44.406394958496094" lon="11.426339065656066">
        <ele>98</ele>
        <time>2005-03-13T11:48:38Z</time>
      </trkpt>
      <trkpt lat="44.406652534380555" lon="11.426575183868408">
        <ele>96</ele>
        <time>2005-03-13T11:48:41Z</time>
      </trkpt>
      <trkpt lat="44.407617961987853" lon="11.427755439653993">
        <ele>95</ele>
        <time>2005-03-13T11:48:55Z</time>
      </trkpt>
      <trkpt lat="44.40824031829834" lon="11.427862560376525">
        <ele>94</ele>
        <time>2005-03-13T11:49:03Z</time>
      </trkpt>
      <trkpt lat="44.409356117248535" lon="11.427476406097412">
        <ele>91</ele>
        <time>2005-03-13T11:49:16Z</time>
      </trkpt>
      <trkpt lat="44.40944186411798" lon="11.427454864606261">
        <ele>91</ele>
        <time>2005-03-13T11:49:17Z</time>
      </trkpt>
      <trkpt lat="44.410922527313232" lon="11.427412033081055">
        <ele>89</ele>
        <time>2005-03-13T11:49:33Z</time>
      </trkpt>
      <trkpt lat="44.412317276000977" lon="11.427369117736816">
        <ele>90</ele>
        <time>2005-03-13T11:49:48Z</time>
      </trkpt>
      <trkpt lat="44.412682140246034" lon="11.427326202392578">
        <ele>89</ele>
        <time>2005-03-13T11:49:52Z</time>
      </trkpt>
      <trkpt lat="44.414291381835938" lon="11.427133083343506">
        <ele>87</ele>
        <time>2005-03-13T11:50:11Z</time>
      </trkpt>
      <trkpt lat="44.416115283966064" lon="11.426939964294434">
        <ele>86</ele>
        <time>2005-03-13T11:50:34Z</time>
      </trkpt>
      <trkpt lat="44.417767524719238" lon="11.42674676142633">
        <ele>84</ele>
        <time>2005-03-13T11:50:56Z</time>
      </trkpt>
      <trkpt lat="44.418625831604004" lon="11.426661014556885">
        <ele>83</ele>
        <time>2005-03-13T11:51:07Z</time>
      </trkpt>
      <trkpt lat="44.420235240831971" lon="11.426403522491455">
        <ele>82</ele>
        <time>2005-03-13T11:51:28Z</time>
      </trkpt>
      <trkpt lat="44.421265125274658" lon="11.426317691802979">
        <ele>83</ele>
        <time>2005-03-13T11:51:42Z</time>
      </trkpt>
      <trkpt lat="44.421651363372803" lon="11.426596641540527">
        <ele>83</ele>
        <time>2005-03-13T11:51:48Z</time>
      </trkpt>
      <trkpt lat="44.422466838732362" lon="11.427669525146484">
        <ele>80</ele>
        <time>2005-03-13T11:52:02Z</time>
      </trkpt>
      <trkpt lat="44.422509670257568" lon="11.427755439653993">
        <ele>80</ele>
        <time>2005-03-13T11:52:03Z</time>
      </trkpt>
      <trkpt lat="44.422917366027832" lon="11.428828239440918">
        <ele>78</ele>
        <time>2005-03-13T11:52:13Z</time>
      </trkpt>
      <trkpt lat="44.42347526550293" lon="11.429922580718994">
        <ele>78</ele>
        <time>2005-03-13T11:52:25Z</time>
      </trkpt>
      <trkpt lat="44.424526691436768" lon="11.431210041046143">
        <ele>78</ele>
        <time>2005-03-13T11:52:45Z</time>
      </trkpt>
      <trkpt lat="44.42497730255127" lon="11.431789398193359">
        <ele>80</ele>
        <time>2005-03-13T11:52:55Z</time>
      </trkpt>
      <trkpt lat="44.425384998321533" lon="11.432240009307861">
        <ele>83</ele>
        <time>2005-03-13T11:53:06Z</time>
      </trkpt>
      <trkpt lat="44.425964439287782" lon="11.43251895904541">
        <ele>86</ele>
        <time>2005-03-13T11:53:21Z</time>
      </trkpt>
      <trkpt lat="44.426543712615967" lon="11.432776534929872">
        <ele>88</ele>
        <time>2005-03-13T11:53:35Z</time>
      </trkpt>
      <trkpt lat="44.426779663190246" lon="11.432991027832031">
        <ele>89</ele>
        <time>2005-03-13T11:53:42Z</time>
      </trkpt>
      <trkpt lat="44.427659511566162" lon="11.434128284454346">
        <ele>91</ele>
        <time>2005-03-13T11:54:06Z</time>
      </trkpt>
      <trkpt lat="44.427981376647949" lon="11.43526554107666">
        <ele>92</ele>
        <time>2005-03-13T11:54:20Z</time>
      </trkpt>
      <trkpt lat="44.428453361615539" lon="11.437067985534668">
        <ele>91</ele>
        <time>2005-03-13T11:54:42Z</time>
      </trkpt>
      <trkpt lat="44.429097175598145" lon="11.438226699829102">
        <ele>90</ele>
        <time>2005-03-13T11:54:56Z</time>
      </trkpt>
      <trkpt lat="44.430105686187744" lon="11.439406871795654">
        <ele>87</ele>
        <time>2005-03-13T11:55:12Z</time>
      </trkpt>
      <trkpt lat="44.431092739105225" lon="11.440801620483398">
        <ele>84</ele>
        <time>2005-03-13T11:55:29Z</time>
      </trkpt>
      <trkpt lat="44.431993961334229" lon="11.442131996154785">
        <ele>81</ele>
        <time>2005-03-13T11:55:45Z</time>
      </trkpt>
      <trkpt lat="44.433066761121154" lon="11.443462371826172">
        <ele>78</ele>
        <time>2005-03-13T11:56:03Z</time>
      </trkpt>
      <trkpt lat="44.434053897857666" lon="11.444149017333984">
        <ele>77</ele>
        <time>2005-03-13T11:56:17Z</time>
      </trkpt>
      <trkpt lat="44.435126781463623" lon="11.444277763366699">
        <ele>76</ele>
        <time>2005-03-13T11:56:30Z</time>
      </trkpt>
      <trkpt lat="44.435555934906006" lon="11.444342136383057">
        <ele>75</ele>
        <time>2005-03-13T11:56:35Z</time>
      </trkpt>
      <trkpt lat="44.436800479888916" lon="11.444900035858154">
        <ele>72</ele>
        <time>2005-03-13T11:56:51Z</time>
      </trkpt>
      <trkpt lat="44.438216686248779" lon="11.445500934496522">
        <ele>71</ele>
        <time>2005-03-13T11:57:10Z</time>
      </trkpt>
      <trkpt lat="44.439547061920166" lon="11.44605883397162">
        <ele>72</ele>
        <time>2005-03-13T11:57:32Z</time>
      </trkpt>
      <trkpt lat="44.439654434099793" lon="11.446123123168945">
        <ele>73</ele>
        <time>2005-03-13T11:57:34Z</time>
      </trkpt>
      <trkpt lat="44.439783096313477" lon="11.446144580841064">
        <ele>72</ele>
        <time>2005-03-13T11:57:36Z</time>
      </trkpt>
      <trkpt lat="44.440319538116455" lon="11.446359241381288">
        <ele>71</ele>
        <time>2005-03-13T11:57:48Z</time>
      </trkpt>
      <trkpt lat="44.440362537279725" lon="11.44625186920166">
        <ele>71</ele>
        <time>2005-03-13T11:57:55Z</time>
      </trkpt>
      <trkpt lat="44.4407057762146" lon="11.446273326873779">
        <ele>71</ele>
        <time>2005-03-13T11:58:11Z</time>
      </trkpt>
      <trkpt lat="44.441306591033936" lon="11.446616565808654">
        <ele>72</ele>
        <time>2005-03-13T12:02:35Z</time>
      </trkpt>
    </trkseg>
  </trk>

  <trk>
    <name>Percorso 002</name>
    <trkseg>
      <trkpt lat="44.353973865509033" lon="11.416726112365723">
        <ele>236</ele>
        <time>1989-12-31T00:00:00Z</time>
      </trkpt>
      <trkpt lat="44.353973865509033" lon="11.41679048538208">
        <ele>236</ele>
        <time>2005-03-13T10:34:37Z</time>
      </trkpt>
      <trkpt lat="44.353952407836914" lon="11.416811859235168">
        <ele>235</ele>
        <time>2005-03-13T10:34:41Z</time>
      </trkpt>
      <trkpt lat="44.353888034820557" lon="11.416876316070557">
        <ele>235</ele>
        <time>2005-03-13T10:34:48Z</time>
      </trkpt>
      <trkpt lat="44.353694915771484" lon="11.416983604431152">
        <ele>238</ele>
        <time>2005-03-13T10:35:12Z</time>
      </trkpt>
      <trkpt lat="44.353652000427246" lon="11.41704797744751">
        <ele>238</ele>
        <time>2005-03-13T10:35:26Z</time>
      </trkpt>
      <trkpt lat="44.353523338213563" lon="11.417090892791748">
        <ele>239</ele>
        <time>2005-03-13T10:35:48Z</time>
      </trkpt>
      <trkpt lat="44.353330135345459" lon="11.417262637987733">
        <ele>240</ele>
        <time>2005-03-13T10:36:12Z</time>
      </trkpt>
      <trkpt lat="44.353201389312744" lon="11.417434215545654">
        <ele>233</ele>
        <time>2005-03-13T10:50:17Z</time>
      </trkpt>
      <trkpt lat="44.353201389312744" lon="11.417455673217773">
        <ele>231</ele>
        <time>2005-03-13T10:50:26Z</time>
      </trkpt>
      <trkpt lat="44.353222763165832" lon="11.417455673217773">
        <ele>230</ele>
        <time>2005-03-13T10:50:28Z</time>
      </trkpt>
      <trkpt lat="44.353222763165832" lon="11.417562961578369">
        <ele>227</ele>
        <time>2005-03-13T10:50:54Z</time>
      </trkpt>
      <trkpt lat="44.353244304656982" lon="11.417562961578369">
        <ele>225</ele>
        <time>2005-03-13T10:50:56Z</time>
      </trkpt>
      <trkpt lat="44.353265762329102" lon="11.417584419250488">
        <ele>222</ele>
        <time>2005-03-13T10:51:10Z</time>
      </trkpt>
      <trkpt lat="44.353287220001221" lon="11.417605876922607">
        <ele>220</ele>
        <time>2005-03-13T10:51:15Z</time>
      </trkpt>
      <trkpt lat="44.353287220001221" lon="11.417584419250488">
        <ele>217</ele>
        <time>2005-03-13T10:51:25Z</time>
      </trkpt>
      <trkpt lat="44.353265762329102" lon="11.417648792266846">
        <ele>214</ele>
        <time>2005-03-13T10:51:40Z</time>
      </trkpt>
      <trkpt lat="44.353265762329102" lon="11.417648792266846">
        <ele>214</ele>
        <time>2005-03-13T10:51:41Z</time>
      </trkpt>
      <trkpt lat="44.353265762329102" lon="11.417713165283203">
        <ele>210</ele>
        <time>2005-03-13T10:51:50Z</time>
      </trkpt>
      <trkpt lat="44.353265762329102" lon="11.417713165283203">
        <ele>209</ele>
        <time>2005-03-13T10:51:52Z</time>
      </trkpt>
      <trkpt lat="44.353437423706055" lon="11.417756080627441">
        <ele>206</ele>
        <time>2005-03-13T10:52:44Z</time>
      </trkpt>
      <trkpt lat="44.353458881378174" lon="11.417777538299561">
        <ele>209</ele>
        <time>2005-03-13T10:52:48Z</time>
      </trkpt>
      <trkpt lat="44.353437423706055" lon="11.417777538299561">
        <ele>206</ele>
        <time>2005-03-13T10:52:49Z</time>
      </trkpt>
      <trkpt lat="44.353458881378174" lon="11.41779899597168">
        <ele>202</ele>
        <time>2005-03-13T10:53:04Z</time>
      </trkpt>
      <trkpt lat="44.353480339050293" lon="11.41779899597168">
        <ele>202</ele>
        <time>2005-03-13T10:53:05Z</time>
      </trkpt>
      <trkpt lat="44.353480339050293" lon="11.417820537462831">
        <ele>199</ele>
        <time>2005-03-13T10:53:10Z</time>
      </trkpt>
      <trkpt lat="44.353480339050293" lon="11.417884826660156">
        <ele>195</ele>
        <time>2005-03-13T10:53:21Z</time>
      </trkpt>
      <trkpt lat="44.353480339050293" lon="11.417884826660156">
        <ele>194</ele>
        <time>2005-03-13T10:53:22Z</time>
      </trkpt>
      <trkpt lat="44.353480339050293" lon="11.417906284332275">
        <ele>192</ele>
        <time>2005-03-13T10:53:25Z</time>
      </trkpt>
      <trkpt lat="44.353523338213563" lon="11.417992115020752">
        <ele>192</ele>
        <time>2005-03-13T10:53:52Z</time>
      </trkpt>
      <trkpt lat="44.353523338213563" lon="11.418077861890197">
        <ele>189</ele>
        <time>2005-03-13T10:54:39Z</time>
      </trkpt>
      <trkpt lat="44.35356616973877" lon="11.418120861053467">
        <ele>186</ele>
        <time>2005-03-13T10:55:00Z</time>
      </trkpt>
      <trkpt lat="44.353673458099365" lon="11.418249607086182">
        <ele>183</ele>
        <time>2005-03-13T10:57:07Z</time>
      </trkpt>
      <trkpt lat="44.353716373443604" lon="11.418249607086182">
        <ele>186</ele>
        <time>2005-03-13T10:58:11Z</time>
      </trkpt>
      <trkpt lat="44.353823661804199" lon="11.418399810791016">
        <ele>189</ele>
        <time>2005-03-13T10:59:10Z</time>
      </trkpt>
      <trkpt lat="44.353845119476318" lon="11.418464183807373">
        <ele>193</ele>
        <time>2005-03-13T10:59:53Z</time>
      </trkpt>
      <trkpt lat="44.353931033983827" lon="11.418614387512207">
        <ele>196</ele>
        <time>2005-03-13T11:00:22Z</time>
      </trkpt>
      <trkpt lat="44.353952407836914" lon="11.418850421905518">
        <ele>202</ele>
        <time>2005-03-13T11:01:45Z</time>
      </trkpt>
      <trkpt lat="44.354102611541748" lon="11.418893337249756">
        <ele>203</ele>
        <time>2005-03-13T11:02:20Z</time>
      </trkpt>
      <trkpt lat="44.354124069213867" lon="11.418979167938232">
        <ele>203</ele>
        <time>2005-03-13T11:02:52Z</time>
      </trkpt>
      <trkpt lat="44.354145526885986" lon="11.418957710266113">
        <ele>203</ele>
        <time>2005-03-13T11:03:01Z</time>
      </trkpt>
      <trkpt lat="44.354124069213867" lon="11.419064998626709">
        <ele>206</ele>
        <time>2005-03-13T11:03:12Z</time>
      </trkpt>
      <trkpt lat="44.354081237688661" lon="11.419129371643066">
        <ele>208</ele>
        <time>2005-03-13T11:03:29Z</time>
      </trkpt>
      <trkpt lat="44.354016780853271" lon="11.419150829315186">
        <ele>210</ele>
        <time>2005-03-13T11:03:53Z</time>
      </trkpt>
      <trkpt lat="44.353995323181152" lon="11.419172286987305">
        <ele>211</ele>
        <time>2005-03-13T11:04:15Z</time>
      </trkpt>
      <trkpt lat="44.353995323181152" lon="11.419258117675781">
        <ele>211</ele>
        <time>2005-03-13T11:04:34Z</time>
      </trkpt>
      <trkpt lat="44.354016780853271" lon="11.41930103302002">
        <ele>212</ele>
        <time>2005-03-13T11:05:00Z</time>
      </trkpt>
      <trkpt lat="44.354016780853271" lon="11.419322490692139">
        <ele>213</ele>
        <time>2005-03-13T11:05:25Z</time>
      </trkpt>
      <trkpt lat="44.35405969619751" lon="11.419429779052734">
        <ele>215</ele>
        <time>2005-03-13T11:05:44Z</time>
      </trkpt>
      <trkpt lat="44.354038238525391" lon="11.419472694396973">
        <ele>217</ele>
        <time>2005-03-13T11:06:15Z</time>
      </trkpt>
      <trkpt lat="44.354038238525391" lon="11.419622898101807">
        <ele>221</ele>
        <time>2005-03-13T11:07:40Z</time>
      </trkpt>
      <trkpt lat="44.354016780853271" lon="11.419708728790283">
        <ele>222</ele>
        <time>2005-03-13T11:08:01Z</time>
      </trkpt>
      <trkpt lat="44.353995323181152" lon="11.419730186462402">
        <ele>224</ele>
        <time>2005-03-13T11:08:30Z</time>
      </trkpt>
      <trkpt lat="44.353995323181152" lon="11.419773101806641">
        <ele>227</ele>
        <time>2005-03-13T11:08:48Z</time>
      </trkpt>
      <trkpt lat="44.354016780853271" lon="11.419837474822998">
        <ele>230</ele>
        <time>2005-03-13T11:09:05Z</time>
      </trkpt>
      <trkpt lat="44.35405969619751" lon="11.419966220855713">
        <ele>233</ele>
        <time>2005-03-13T11:09:24Z</time>
      </trkpt>
      <trkpt lat="44.354145526885986" lon="11.420009136199951">
        <ele>235</ele>
        <time>2005-03-13T11:09:51Z</time>
      </trkpt>
      <trkpt lat="44.354209899902344" lon="11.420073509216309">
        <ele>237</ele>
        <time>2005-03-13T11:10:10Z</time>
      </trkpt>
      <trkpt lat="44.354274272918701" lon="11.420094966888428">
        <ele>240</ele>
        <time>2005-03-13T11:10:26Z</time>
      </trkpt>
      <trkpt lat="44.354338562116027" lon="11.420094966888428">
        <ele>244</ele>
        <time>2005-03-13T11:10:39Z</time>
      </trkpt>
      <trkpt lat="44.354403018951416" lon="11.420180797576904">
        <ele>248</ele>
        <time>2005-03-13T11:25:33Z</time>
      </trkpt>
      <trkpt lat="44.354488765820861" lon="11.42003059387207">
        <ele>247</ele>
        <time>2005-03-13T11:25:49Z</time>
      </trkpt>
      <trkpt lat="44.354510307312012" lon="11.420009136199951">
        <ele>248</ele>
        <time>2005-03-13T11:34:03Z</time>
      </trkpt>
      <trkpt lat="44.354596138000488" lon="11.419858932495117">
        <ele>248</ele>
        <time>2005-03-13T11:34:08Z</time>
      </trkpt>
      <trkpt lat="44.354660511016846" lon="11.419773101806641">
        <ele>247</ele>
        <time>2005-03-13T11:34:10Z</time>
      </trkpt>
      <trkpt lat="44.354724884033203" lon="11.419644439592957">
        <ele>246</ele>
        <time>2005-03-13T11:34:12Z</time>
      </trkpt>
      <trkpt lat="44.35481071472168" lon="11.419515609741211">
        <ele>246</ele>
        <time>2005-03-13T11:34:14Z</time>
      </trkpt>
      <trkpt lat="44.355025291442871" lon="11.419022083282471">
        <ele>241</ele>
        <time>2005-03-13T11:34:19Z</time>
      </trkpt>
      <trkpt lat="44.355068206787109" lon="11.418914794921875">
        <ele>240</ele>
        <time>2005-03-13T11:34:20Z</time>
      </trkpt>
      <trkpt lat="44.355518817901611" lon="11.418657302856445">
        <ele>235</ele>
        <time>2005-03-13T11:34:25Z</time>
      </trkpt>
      <trkpt lat="44.355819225311279" lon="11.418485641479492">
        <ele>231</ele>
        <time>2005-03-13T11:34:28Z</time>
      </trkpt>
      <trkpt lat="44.355926513671875" lon="11.418421268463135">
        <ele>228</ele>
        <time>2005-03-13T11:34:29Z</time>
      </trkpt>
      <trkpt lat="44.356355667114258" lon="11.418056488037109">
        <ele>222</ele>
        <time>2005-03-13T11:34:33Z</time>
      </trkpt>
      <trkpt lat="44.356677532196045" lon="11.41779899597168">
        <ele>216</ele>
        <time>2005-03-13T11:34:36Z</time>
      </trkpt>
      <trkpt lat="44.356784820556641" lon="11.417713165283203">
        <ele>213</ele>
        <time>2005-03-13T11:34:37Z</time>
      </trkpt>
      <trkpt lat="44.356935024261475" lon="11.417455673217773">
        <ele>208</ele>
        <time>2005-03-13T11:34:41Z</time>
      </trkpt>
      <trkpt lat="44.356720363721251" lon="11.417198181152344">
        <ele>205</ele>
        <time>2005-03-13T11:34:45Z</time>
      </trkpt>
      <trkpt lat="44.356634616851807" lon="11.417026519775391">
        <ele>203</ele>
        <time>2005-03-13T11:34:47Z</time>
      </trkpt>
      <trkpt lat="44.356656074523926" lon="11.416811859235168">
        <ele>203</ele>
        <time>2005-03-13T11:34:49Z</time>
      </trkpt>
      <trkpt lat="44.356698989868164" lon="11.416404163464904">
        <ele>202</ele>
        <time>2005-03-13T11:34:53Z</time>
      </trkpt>
      <trkpt lat="44.356613159179688" lon="11.415674686431885">
        <ele>198</ele>
        <time>2005-03-13T11:34:59Z</time>
      </trkpt>
      <trkpt lat="44.356591701507568" lon="11.415417194366455">
        <ele>194</ele>
        <time>2005-03-13T11:35:01Z</time>
      </trkpt>
      <trkpt lat="44.356398582458496" lon="11.415245532989502">
        <ele>192</ele>
        <time>2005-03-13T11:35:04Z</time>
      </trkpt>
      <trkpt lat="44.356269836425781" lon="11.415266990661621">
        <ele>190</ele>
        <time>2005-03-13T11:35:06Z</time>
      </trkpt>
      <trkpt lat="44.356119632720947" lon="11.415395736694336">
        <ele>186</ele>
        <time>2005-03-13T11:35:11Z</time>
      </trkpt>
      <trkpt lat="44.356119632720947" lon="11.415266990661621">
        <ele>186</ele>
        <time>2005-03-13T11:35:13Z</time>
      </trkpt>
      <trkpt lat="44.356334209442139" lon="11.415073871612549">
        <ele>181</ele>
        <time>2005-03-13T11:35:18Z</time>
      </trkpt>
      <trkpt lat="44.356377124786377" lon="11.41505241394043">
        <ele>181</ele>
        <time>2005-03-13T11:35:19Z</time>
      </trkpt>
      <trkpt lat="44.356398582458496" lon="11.414880836382508">
        <ele>178</ele>
        <time>2005-03-13T11:35:22Z</time>
      </trkpt>
      <trkpt lat="44.356377124786377" lon="11.414494514465332">
        <ele>175</ele>
        <time>2005-03-13T11:35:27Z</time>
      </trkpt>
      <trkpt lat="44.356355667114258" lon="11.414430141448975">
        <ele>173</ele>
        <time>2005-03-13T11:35:28Z</time>
      </trkpt>
      <trkpt lat="44.356613159179688" lon="11.414065361022949">
        <ele>169</ele>
        <time>2005-03-13T11:35:34Z</time>
      </trkpt>
      <trkpt lat="44.356620786711574" lon="11.413887999951839">
        <ele>169</ele>
        <time>1989-12-31T00:00:00Z</time>
      </trkpt>
    </trkseg>
  </trk>

  <trk>
    <name>Percorso 003</name>
    <trkseg>
      <trkpt lat="44.353201389312744" lon="11.417455673217773">
        <ele>236</ele>
        <time>1989-12-31T00:00:00Z</time>
      </trkpt>
      <trkpt lat="44.353201389312744" lon="11.417498588562012">
        <ele>236</ele>
        <time>2005-03-13T10:50:00Z</time>
      </trkpt>
      <trkpt lat="44.353137016296387" lon="11.417605876922607">
        <ele>240</ele>
        <time>2005-03-13T10:49:41Z</time>
      </trkpt>
      <trkpt lat="44.353115558624268" lon="11.417627334594727">
        <ele>241</ele>
        <time>2005-03-13T10:49:38Z</time>
      </trkpt>
      <trkpt lat="44.352965438738465" lon="11.417648792266846">
        <ele>244</ele>
        <time>2005-03-13T10:49:15Z</time>
      </trkpt>
      <trkpt lat="44.352879524230957" lon="11.417713165283203">
        <ele>244</ele>
        <time>2005-03-13T10:48:59Z</time>
      </trkpt>
      <trkpt lat="44.352772235870361" lon="11.417756080627441">
        <ele>244</ele>
        <time>2005-03-13T10:48:45Z</time>
      </trkpt>
      <trkpt lat="44.352707862854004" lon="11.417713165283203">
        <ele>247</ele>
        <time>2005-03-13T10:48:29Z</time>
      </trkpt>
      <trkpt lat="44.352428913116455" lon="11.417906284332275">
        <ele>249</ele>
        <time>2005-03-13T10:48:07Z</time>
      </trkpt>
      <trkpt lat="44.352385997772217" lon="11.417970741167665">
        <ele>251</ele>
        <time>2005-03-13T10:48:01Z</time>
      </trkpt>
      <trkpt lat="44.352321624755859" lon="11.417970741167665">
        <ele>248</ele>
        <time>2005-03-13T10:47:56Z</time>
      </trkpt>
      <trkpt lat="44.352278709411621" lon="11.417992115020752">
        <ele>250</ele>
        <time>2005-03-13T10:47:53Z</time>
      </trkpt>
      <trkpt lat="44.352257335558534" lon="11.417992115020752">
        <ele>250</ele>
        <time>2005-03-13T10:47:52Z</time>
      </trkpt>
      <trkpt lat="44.352192878723145" lon="11.41803503036499">
        <ele>253</ele>
        <time>2005-03-13T10:47:47Z</time>
      </trkpt>
      <trkpt lat="44.352171421051025" lon="11.418056488037109">
        <ele>256</ele>
        <time>2005-03-13T10:47:43Z</time>
      </trkpt>
      <trkpt lat="44.352128505706787" lon="11.41803503036499">
        <ele>257</ele>
        <time>2005-03-13T10:47:38Z</time>
      </trkpt>
    </trkseg>
  </trk>

</gpx>
